Time,TemperatureF,DewpointF,PressureIn,WindDirection,WindDirectionDegrees,WindSpeedMPH,WindSpeedGustMPH,Humidity,HourlyPrecipIn,Conditions,Clouds,dailyrainin,SoftwareType,DateUTC
2013-07-03 00:01:00,80.7,75.0,30.11,SSE,163,4.3,5.0,83,0.00,,,0.01,TxWx,2013-07-03 04:01:00,
2013-07-03 00:02:00,80.7,75.0,30.11,SE,141,4.3,4.3,83,0.00,,,0.01,TxWx,2013-07-03 04:02:00,
2013-07-03 00:04:00,80.7,75.0,30.11,SE,141,3.1,3.1,83,0.00,,,0.00,TxWx,2013-07-03 04:04:00,
2013-07-03 00:05:00,80.7,75.0,30.11,SE,141,3.7,4.3,83,0.00,,,0.00,TxWx,2013-07-03 04:05:00,
2013-07-03 00:06:00,80.6,75.0,30.11,SE,141,3.1,3.7,83,0.00,,,0.00,TxWx,2013-07-03 04:06:00,
2013-07-03 00:07:00,80.6,75.0,30.11,SE,141,3.7,3.7,83,0.00,,,0.00,TxWx,2013-07-03 04:07:00,
2013-07-03 00:10:00,80.6,75.0,30.11,SE,141,3.7,3.7,83,0.00,,,0.00,TxWx,2013-07-03 04:10:00,
2013-07-03 00:11:00,80.6,75.0,30.10,SE,141,5.6,5.6,83,0.00,,,0.00,TxWx,2013-07-03 04:11:00,
2013-07-03 00:12:00,80.6,75.0,30.10,SE,141,5.0,5.0,83,0.00,,,0.00,TxWx,2013-07-03 04:12:00,
2013-07-03 00:15:00,80.6,75.0,30.10,SSE,163,3.7,3.7,83,0.00,,,0.00,TxWx,2013-07-03 04:15:00,
2013-07-03 00:17:00,80.7,76.0,30.10,SE,141,3.1,3.7,84,0.00,,,0.00,TxWx,2013-07-03 04:17:00,
2013-07-03 00:18:00,80.7,76.0,30.10,SE,141,5.6,5.6,84,0.00,,,0.00,TxWx,2013-07-03 04:18:00,
2013-07-03 00:19:00,80.6,75.0,30.10,SSE,163,6.2,6.2,83,0.00,,,0.00,TxWx,2013-07-03 04:19:00,
2013-07-03 00:21:00,80.4,74.0,30.10,SE,141,5.6,6.2,83,0.00,,,0.00,TxWx,2013-07-03 04:21:00,
2013-07-03 00:24:00,80.5,74.0,30.10,SE,141,5.6,5.6,83,0.00,,,0.00,TxWx,2013-07-03 04:24:00,
2013-07-03 00:25:00,80.4,74.0,30.10,SE,141,5.6,5.6,83,0.00,,,0.00,TxWx,2013-07-03 04:25:00,
2013-07-03 00:26:00,80.6,75.0,30.10,SE,141,6.2,6.8,83,0.00,,,0.00,TxWx,2013-07-03 04:26:00,
2013-07-03 00:29:00,80.9,75.0,30.10,SE,141,6.8,6.8,83,0.00,,,0.00,TxWx,2013-07-03 04:29:00,
2013-07-03 00:31:00,80.9,75.0,30.10,SE,141,8.0,8.0,83,0.00,,,0.00,TxWx,2013-07-03 04:31:00,
2013-07-03 00:32:00,81.0,75.0,30.10,ESE,118,8.0,8.0,83,0.00,,,0.00,TxWx,2013-07-03 04:32:00,
2013-07-03 00:36:00,81.1,75.0,30.10,SE,141,10.5,10.5,82,0.00,,,0.00,TxWx,2013-07-03 04:36:00,
2013-07-03 00:37:00,81.1,75.0,30.10,SE,141,9.9,9.9,82,0.00,,,0.00,TxWx,2013-07-03 04:37:00,
2013-07-03 00:41:00,81.2,75.0,30.10,ESE,118,10.5,10.5,81,0.00,,,0.00,TxWx,2013-07-03 04:41:00,
2013-07-03 00:43:00,81.4,75.0,30.10,ESE,118,9.9,10.5,81,0.00,,,0.00,TxWx,2013-07-03 04:43:00,
2013-07-03 00:44:00,81.3,75.0,30.09,SE,141,11.1,12.4,81,0.00,,,0.00,TxWx,2013-07-03 04:44:00,
2013-07-03 00:45:00,81.4,74.0,30.09,SE,141,12.4,12.4,81,0.00,,,0.00,TxWx,2013-07-03 04:45:00,
2013-07-03 00:46:00,81.4,75.0,30.09,SE,141,9.9,9.9,81,0.00,,,0.00,TxWx,2013-07-03 04:46:00,
2013-07-03 00:48:00,81.2,74.0,30.09,SE,141,13.6,13.6,81,0.00,,,0.00,TxWx,2013-07-03 04:48:00,
2013-07-03 00:50:00,81.4,74.0,30.10,SE,141,9.9,11.8,81,0.00,,,0.00,TxWx,2013-07-03 04:50:00,
2013-07-03 00:51:00,81.3,74.0,30.09,SE,141,10.5,11.1,81,0.00,,,0.00,TxWx,2013-07-03 04:51:00,
2013-07-03 00:52:00,81.3,74.0,30.09,SE,141,10.5,11.1,81,0.00,,,0.00,TxWx,2013-07-03 04:52:00,
2013-07-03 00:53:00,81.1,74.0,30.09,SE,141,12.4,12.4,80,0.00,,,0.00,TxWx,2013-07-03 04:53:00,
2013-07-03 00:54:00,81.2,74.0,30.09,ESE,118,11.8,11.8,80,0.00,,,0.00,TxWx,2013-07-03 04:54:00,
2013-07-03 00:58:00,81.2,74.0,30.09,ESE,118,11.8,13.0,80,0.00,,,0.00,TxWx,2013-07-03 04:58:00,
2013-07-03 00:59:00,81.3,74.0,30.09,SE,141,11.8,11.8,80,0.00,,,0.00,TxWx,2013-07-03 04:59:00,
2013-07-03 01:00:00,81.3,74.0,30.09,SE,141,11.1,11.8,80,0.00,,,0.00,TxWx,2013-07-03 05:00:00,
2013-07-03 01:02:00,81.0,74.0,30.09,SE,141,12.4,13.0,80,0.00,,,0.01,TxWx,2013-07-03 05:02:00,
2013-07-03 01:04:00,81.1,74.0,30.09,SE,141,13.0,13.0,79,0.00,,,0.01,TxWx,2013-07-03 05:04:00,
2013-07-03 01:05:00,81.2,74.0,30.09,SE,141,11.1,11.1,79,0.00,,,0.01,TxWx,2013-07-03 05:05:00,
2013-07-03 01:07:00,81.3,74.0,30.10,SE,141,13.0,13.0,79,0.00,,,0.01,TxWx,2013-07-03 05:07:00,
2013-07-03 01:08:00,81.4,74.0,30.10,SE,141,9.9,9.9,79,0.00,,,0.01,TxWx,2013-07-03 05:08:00,
2013-07-03 01:12:00,81.4,74.0,30.09,ESE,118,11.8,11.8,79,0.00,,,0.01,TxWx,2013-07-03 05:12:00,
2013-07-03 01:13:00,81.4,74.0,30.09,SE,141,10.5,12.4,79,0.06,,,0.01,TxWx,2013-07-03 05:13:00,
2013-07-03 01:14:00,81.3,74.0,30.09,SE,141,11.1,11.1,80,0.06,,,0.01,TxWx,2013-07-03 05:14:00,
2013-07-03 01:17:00,81.3,74.0,30.09,SE,141,14.2,14.2,79,0.06,,,0.01,TxWx,2013-07-03 05:17:00,
2013-07-03 01:18:00,81.3,74.0,30.09,SE,141,12.4,13.6,79,0.06,,,0.01,TxWx,2013-07-03 05:18:00,
2013-07-03 01:19:00,81.4,74.0,30.09,SE,141,10.5,11.8,79,0.06,,,0.01,TxWx,2013-07-03 05:19:00,
2013-07-03 01:20:00,81.4,74.0,30.09,ESE,118,11.8,11.8,79,0.06,,,0.01,TxWx,2013-07-03 05:20:00,
2013-07-03 01:23:00,81.5,74.0,30.09,ESE,118,10.5,10.5,80,0.00,,,0.01,TxWx,2013-07-03 05:23:00,
2013-07-03 01:24:00,81.5,75.0,30.09,SE,141,10.5,10.5,80,0.00,,,0.01,TxWx,2013-07-03 05:24:00,
2013-07-03 01:25:00,81.4,74.0,30.09,SE,141,9.3,10.5,80,0.00,,,0.01,TxWx,2013-07-03 05:25:00,
2013-07-03 01:26:00,81.4,74.0,30.09,SE,141,9.9,9.9,80,0.00,,,0.01,TxWx,2013-07-03 05:26:00,
2013-07-03 01:30:00,81.4,74.0,30.09,SE,141,11.1,11.1,80,0.00,,,0.01,TxWx,2013-07-03 05:30:00,
2013-07-03 01:33:00,81.4,74.0,30.09,ESE,118,10.5,10.5,81,0.00,,,0.01,TxWx,2013-07-03 05:33:00,
2013-07-03 01:34:00,81.4,74.0,30.08,SE,141,9.3,10.5,81,0.00,,,0.01,TxWx,2013-07-03 05:34:00,
2013-07-03 01:36:00,81.1,74.0,30.08,SE,141,13.6,13.6,81,0.00,,,0.01,TxWx,2013-07-03 05:36:00,
2013-07-03 01:37:00,81.2,74.0,30.09,ESE,118,11.1,11.8,81,0.00,,,0.01,TxWx,2013-07-03 05:37:00,
2013-07-03 01:38:00,81.2,74.0,30.08,ESE,118,11.1,11.1,81,0.00,,,0.01,TxWx,2013-07-03 05:38:00,
2013-07-03 01:40:00,81.4,74.0,30.08,SE,141,11.8,12.4,81,0.00,,,0.01,TxWx,2013-07-03 05:40:00,
2013-07-03 01:42:00,81.4,74.0,30.08,SE,141,11.8,12.4,81,0.00,,,0.01,TxWx,2013-07-03 05:42:00,
2013-07-03 01:43:00,81.2,74.0,30.08,SE,141,12.4,12.4,80,0.00,,,0.01,TxWx,2013-07-03 05:43:00,
2013-07-03 01:46:00,81.5,75.0,30.09,ESE,118,12.4,12.4,80,0.00,,,0.01,TxWx,2013-07-03 05:46:00,
2013-07-03 01:48:00,81.4,74.0,30.08,ESE,118,11.8,12.4,80,0.00,,,0.01,TxWx,2013-07-03 05:48:00,
2013-07-03 01:51:00,81.3,74.0,30.08,ESE,118,12.4,13.6,80,0.00,,,0.01,TxWx,2013-07-03 05:51:00,
2013-07-03 01:53:00,81.4,74.0,30.08,SE,141,11.8,11.8,81,0.00,,,0.01,TxWx,2013-07-03 05:53:00,
2013-07-03 01:55:00,81.2,74.0,30.08,SE,141,12.4,13.0,80,0.00,,,0.01,TxWx,2013-07-03 05:55:00,
2013-07-03 01:56:00,81.3,74.0,30.08,ESE,118,13.0,13.6,80,0.00,,,0.01,TxWx,2013-07-03 05:56:00,
2013-07-03 01:57:00,81.4,74.0,30.08,SE,141,13.0,13.0,80,0.00,,,0.01,TxWx,2013-07-03 05:57:00,
2013-07-03 01:58:00,81.4,74.0,30.08,SE,141,12.4,13.0,80,0.00,,,0.01,TxWx,2013-07-03 05:58:00,
2013-07-03 02:00:00,81.3,74.0,30.08,SE,141,13.0,13.0,80,0.00,,,0.01,TxWx,2013-07-03 06:00:00,
2013-07-03 02:02:00,81.3,74.0,30.08,ESE,118,12.4,13.0,80,0.00,,,0.01,TxWx,2013-07-03 06:02:00,
2013-07-03 02:03:00,81.4,74.0,30.08,SE,141,11.1,11.1,80,0.00,,,0.01,TxWx,2013-07-03 06:03:00,
2013-07-03 02:07:00,81.2,74.0,30.08,SE,141,11.8,11.8,80,0.00,,,0.01,TxWx,2013-07-03 06:07:00,
2013-07-03 02:08:00,81.2,74.0,30.08,SE,141,12.4,12.4,80,0.00,,,0.01,TxWx,2013-07-03 06:08:00,
2013-07-03 02:09:00,81.4,74.0,30.07,SE,141,9.3,10.5,80,0.00,,,0.01,TxWx,2013-07-03 06:09:00,
2013-07-03 02:10:00,81.3,74.0,30.07,ESE,118,12.4,12.4,80,0.00,,,0.01,TxWx,2013-07-03 06:10:00,
2013-07-03 02:13:00,81.3,74.0,30.07,ESE,118,11.8,11.8,81,0.00,,,0.01,TxWx,2013-07-03 06:13:00,
2013-07-03 02:14:00,81.3,74.0,30.07,ESE,118,11.1,13.6,81,0.00,,,0.01,TxWx,2013-07-03 06:14:00,
2013-07-03 02:15:00,81.3,74.0,30.07,SE,141,12.4,12.4,81,0.00,,,0.01,TxWx,2013-07-03 06:15:00,
2013-07-03 02:17:00,81.2,74.0,30.07,SE,141,13.0,13.6,81,0.00,,,0.01,TxWx,2013-07-03 06:17:00,
2013-07-03 02:18:00,81.4,74.0,30.07,SE,141,9.3,9.9,81,0.00,,,0.01,TxWx,2013-07-03 06:18:00,
2013-07-03 02:19:00,81.3,74.0,30.07,ESE,118,9.9,9.9,81,0.00,,,0.01,TxWx,2013-07-03 06:19:00,
2013-07-03 02:22:00,81.1,74.0,30.07,ESE,118,11.8,11.8,80,0.00,,,0.01,TxWx,2013-07-03 06:22:00,
2013-07-03 02:24:00,81.3,74.0,30.06,SE,141,9.9,10.5,80,0.00,,,0.01,TxWx,2013-07-03 06:24:00,
2013-07-03 02:25:00,81.4,74.0,30.06,ESE,118,9.3,9.9,80,0.00,,,0.01,TxWx,2013-07-03 06:25:00,
2013-07-03 02:26:00,81.3,74.0,30.07,SE,141,11.1,11.8,80,0.00,,,0.01,TxWx,2013-07-03 06:26:00,
2013-07-03 02:27:00,81.3,74.0,30.06,ESE,118,11.1,11.1,80,0.00,,,0.01,TxWx,2013-07-03 06:27:00,
2013-07-03 02:30:00,81.2,74.0,30.07,ESE,118,11.8,11.8,80,0.00,,,0.01,TxWx,2013-07-03 06:30:00,
2013-07-03 02:32:00,81.3,74.0,30.07,ESE,118,8.7,10.5,81,0.00,,,0.01,TxWx,2013-07-03 06:32:00,
2013-07-03 02:33:00,81.3,74.0,30.07,SE,141,9.9,11.1,81,0.00,,,0.01,TxWx,2013-07-03 06:33:00,
2013-07-03 02:35:00,81.3,74.0,30.07,SE,141,10.5,10.5,81,0.00,,,0.01,TxWx,2013-07-03 06:35:00,
2013-07-03 02:36:00,81.1,74.0,30.07,SE,141,11.1,11.1,81,0.00,,,0.01,TxWx,2013-07-03 06:36:00,
2013-07-03 02:39:00,81.3,74.0,30.07,SE,141,9.3,10.5,81,0.00,,,0.01,TxWx,2013-07-03 06:39:00,
2013-07-03 02:40:00,81.1,74.0,30.07,SE,141,13.0,13.6,81,0.00,,,0.01,TxWx,2013-07-03 06:40:00,
2013-07-03 02:41:00,81.3,74.0,30.07,ESE,118,12.4,13.0,81,0.00,,,0.01,TxWx,2013-07-03 06:41:00,
2013-07-03 02:42:00,81.4,74.0,30.06,ESE,118,10.5,11.8,81,0.00,,,0.01,TxWx,2013-07-03 06:42:00,
2013-07-03 02:46:00,81.4,74.0,30.07,SE,141,10.5,11.1,81,0.00,,,0.01,TxWx,2013-07-03 06:46:00,
2013-07-03 02:47:00,81.2,74.0,30.07,SE,141,13.0,13.0,80,0.00,,,0.01,TxWx,2013-07-03 06:47:00,
2013-07-03 02:52:00,81.4,74.0,30.06,SE,141,13.6,13.6,81,0.00,,,0.01,TxWx,2013-07-03 06:52:00,
2013-07-03 02:53:00,81.4,74.0,30.07,SE,141,13.0,13.0,81,0.00,,,0.01,TxWx,2013-07-03 06:53:00,
2013-07-03 02:55:00,81.4,74.0,30.06,SE,141,14.2,14.2,81,0.00,,,0.01,TxWx,2013-07-03 06:55:00,
2013-07-03 02:56:00,81.4,74.0,30.06,ESE,118,11.1,13.0,81,0.00,,,0.01,TxWx,2013-07-03 06:56:00,
2013-07-03 02:59:00,81.3,74.0,30.06,SE,141,12.4,13.6,80,0.00,,,0.01,TxWx,2013-07-03 06:59:00,
2013-07-03 03:00:00,81.3,74.0,30.06,ESE,118,14.2,14.9,80,0.00,,,0.01,TxWx,2013-07-03 07:00:00,
2013-07-03 03:01:00,81.5,75.0,30.06,SE,141,13.6,13.6,80,0.00,,,0.01,TxWx,2013-07-03 07:01:00,
2013-07-03 03:05:00,80.9,74.0,30.06,ESE,118,13.6,17.3,80,0.00,,,0.01,TxWx,2013-07-03 07:05:00,
2013-07-03 03:06:00,80.5,74.0,30.06,ESE,118,17.3,17.9,80,0.00,,,0.01,TxWx,2013-07-03 07:06:00,
2013-07-03 03:10:00,79.9,74.0,30.07,East,96,13.6,14.2,82,0.00,,,0.01,TxWx,2013-07-03 07:10:00,
2013-07-03 03:12:00,79.8,74.0,30.07,SE,141,12.4,12.4,83,0.00,,,0.01,TxWx,2013-07-03 07:12:00,
2013-07-03 03:15:00,79.7,74.0,30.07,ESE,118,15.5,15.5,83,0.00,,,0.01,TxWx,2013-07-03 07:15:00,
2013-07-03 03:16:00,79.8,74.0,30.07,SE,141,15.5,15.5,83,0.00,,,0.01,TxWx,2013-07-03 07:16:00,
2013-07-03 03:17:00,79.8,74.0,30.07,ESE,118,14.9,14.9,83,0.00,,,0.01,TxWx,2013-07-03 07:17:00,
2013-07-03 03:18:00,79.7,74.0,30.07,ESE,118,14.9,14.9,83,0.00,,,0.01,TxWx,2013-07-03 07:18:00,
2013-07-03 03:22:00,79.7,74.0,30.07,ESE,118,14.9,15.5,83,0.00,,,0.01,TxWx,2013-07-03 07:22:00,
2013-07-03 03:23:00,79.5,74.0,30.07,ESE,118,13.6,14.9,83,0.00,,,0.01,TxWx,2013-07-03 07:23:00,
2013-07-03 03:24:00,79.5,73.0,30.07,ESE,118,13.0,13.6,82,0.00,,,0.01,TxWx,2013-07-03 07:24:00,
2013-07-03 03:26:00,79.8,74.0,30.07,ESE,118,14.9,16.7,83,0.00,,,0.01,TxWx,2013-07-03 07:26:00,
2013-07-03 03:27:00,79.9,74.0,30.07,SE,141,14.2,17.9,83,0.00,,,0.01,TxWx,2013-07-03 07:27:00,
2013-07-03 03:29:00,79.6,74.0,30.07,East,96,18.6,19.2,82,0.00,,,0.01,TxWx,2013-07-03 07:29:00,
2013-07-03 03:30:00,79.7,74.0,30.07,ESE,118,20.4,21.0,82,0.00,,,0.01,TxWx,2013-07-03 07:30:00,
2013-07-03 03:32:00,79.8,74.0,30.06,ESE,118,14.9,17.3,82,0.00,,,0.01,TxWx,2013-07-03 07:32:00,
2013-07-03 03:35:00,79.4,73.0,30.07,ESE,118,17.9,17.9,82,0.00,,,0.01,TxWx,2013-07-03 07:35:00,
2013-07-03 03:36:00,79.2,73.0,30.06,ESE,118,19.8,22.3,81,0.00,,,0.01,TxWx,2013-07-03 07:36:00,
2013-07-03 03:38:00,79.3,73.0,30.06,ESE,118,14.9,16.7,81,0.00,,,0.01,TxWx,2013-07-03 07:38:00,
2013-07-03 03:39:00,79.1,73.0,30.07,ESE,118,17.3,19.8,81,0.00,,,0.01,TxWx,2013-07-03 07:39:00,
2013-07-03 03:40:00,78.7,73.0,30.06,SE,141,17.3,17.3,81,0.00,,,0.01,TxWx,2013-07-03 07:40:00,
2013-07-03 03:43:00,78.9,72.0,30.06,East,96,19.2,19.2,80,0.00,,,0.01,TxWx,2013-07-03 07:43:00,
2013-07-03 03:46:00,78.9,72.0,30.06,East,96,16.1,16.1,81,0.00,,,0.01,TxWx,2013-07-03 07:46:00,
2013-07-03 03:47:00,79.1,72.0,30.06,ESE,118,12.4,13.0,81,0.00,,,0.01,TxWx,2013-07-03 07:47:00,
2013-07-03 03:48:00,79.2,72.0,30.06,ESE,118,14.2,14.2,81,0.00,,,0.01,TxWx,2013-07-03 07:48:00,
2013-07-03 03:49:00,79.4,73.0,30.06,ESE,118,13.6,14.2,81,0.00,,,0.01,TxWx,2013-07-03 07:49:00,
2013-07-03 03:51:00,79.4,72.0,30.06,ESE,118,16.1,17.3,80,0.00,,,0.01,TxWx,2013-07-03 07:51:00,
2013-07-03 03:53:00,79.5,73.0,30.06,ESE,118,15.5,18.6,79,0.00,,,0.01,TxWx,2013-07-03 07:53:00,
2013-07-03 03:54:00,79.4,72.0,30.06,East,96,18.6,21.0,79,0.00,,,0.01,TxWx,2013-07-03 07:54:00,
2013-07-03 03:55:00,79.4,72.0,30.06,ESE,118,19.2,19.2,79,0.00,,,0.01,TxWx,2013-07-03 07:55:00,
2013-07-03 03:57:00,79.4,72.0,30.06,East,96,14.9,17.3,80,0.00,,,0.01,TxWx,2013-07-03 07:57:00,
2013-07-03 03:59:00,79.3,72.0,30.06,ESE,118,15.5,15.5,81,0.00,,,0.01,TxWx,2013-07-03 07:59:00,
2013-07-03 04:01:00,79.0,72.0,30.06,East,96,18.6,19.8,80,0.00,,,0.01,TxWx,2013-07-03 08:01:00,
2013-07-03 04:02:00,79.3,72.0,30.06,ESE,118,17.9,18.6,81,0.00,,,0.01,TxWx,2013-07-03 08:02:00,
2013-07-03 04:05:00,79.5,73.0,30.06,ESE,118,14.2,14.9,82,0.00,,,0.01,TxWx,2013-07-03 08:05:00,
2013-07-03 04:06:00,79.7,74.0,30.06,SE,141,18.6,18.6,82,0.00,,,0.01,TxWx,2013-07-03 08:06:00,
2013-07-03 04:07:00,79.1,72.0,30.06,SE,141,14.2,15.5,81,0.00,,,0.01,TxWx,2013-07-03 08:07:00,
2013-07-03 04:08:00,79.1,72.0,30.06,SSE,163,11.1,13.0,81,0.00,,,0.01,TxWx,2013-07-03 08:08:00,
2013-07-03 04:10:00,79.7,74.0,30.06,ESE,118,15.5,17.3,83,0.00,,,0.01,TxWx,2013-07-03 08:10:00,
2013-07-03 04:12:00,79.0,73.0,30.06,ESE,118,16.1,16.7,83,0.00,,,0.01,TxWx,2013-07-03 08:12:00,
2013-07-03 04:13:00,79.1,73.0,30.06,East,96,14.2,14.2,83,0.00,,,0.01,TxWx,2013-07-03 08:13:00,
2013-07-03 04:14:00,79.2,73.0,30.06,SE,141,12.4,14.2,83,0.00,,,0.01,TxWx,2013-07-03 08:14:00,
2013-07-03 04:17:00,79.0,74.0,30.06,SE,141,14.2,14.2,84,0.00,,,0.01,TxWx,2013-07-03 08:17:00,
2013-07-03 04:18:00,79.0,73.0,30.06,SE,141,11.8,11.8,83,0.00,,,0.01,TxWx,2013-07-03 08:18:00,
2013-07-03 04:19:00,79.0,74.0,30.06,SE,141,10.5,12.4,84,0.00,,,0.01,TxWx,2013-07-03 08:19:00,
2013-07-03 04:20:00,78.6,73.0,30.06,SE,141,11.8,11.8,83,0.00,,,0.01,TxWx,2013-07-03 08:20:00,
2013-07-03 04:22:00,78.7,73.0,30.06,ESE,118,11.8,12.4,83,0.00,,,0.01,TxWx,2013-07-03 08:22:00,
2013-07-03 04:24:00,79.1,73.0,30.06,SE,141,8.7,9.3,83,0.00,,,0.01,TxWx,2013-07-03 08:24:00,
2013-07-03 04:25:00,79.1,73.0,30.06,SE,141,10.5,10.5,82,0.00,,,0.01,TxWx,2013-07-03 08:25:00,
2013-07-03 04:29:00,79.3,73.0,30.06,SE,141,9.9,9.9,82,0.00,,,0.01,TxWx,2013-07-03 08:29:00,
2013-07-03 04:30:00,79.4,73.0,30.06,ESE,118,9.9,10.5,82,0.00,,,0.01,TxWx,2013-07-03 08:30:00,
2013-07-03 04:32:00,79.5,74.0,30.06,ESE,118,10.5,10.5,82,0.00,,,0.01,TxWx,2013-07-03 08:32:00,
2013-07-03 04:36:00,79.7,74.0,30.06,East,96,10.5,10.5,81,0.00,,,0.01,TxWx,2013-07-03 08:36:00,
2013-07-03 04:38:00,80.0,74.0,30.06,SE,141,9.3,10.5,81,0.00,,,0.01,TxWx,2013-07-03 08:38:00,
2013-07-03 04:39:00,80.3,74.0,30.06,ESE,118,9.3,9.3,81,0.00,,,0.01,TxWx,2013-07-03 08:39:00,
2013-07-03 04:42:00,80.2,74.0,30.06,SE,141,14.2,15.5,82,0.00,,,0.01,TxWx,2013-07-03 08:42:00,
2013-07-03 04:43:00,80.4,74.0,30.06,SE,141,12.4,13.0,82,0.00,,,0.01,TxWx,2013-07-03 08:43:00,
2013-07-03 04:44:00,80.5,74.0,30.06,ESE,118,11.1,13.0,82,0.00,,,0.01,TxWx,2013-07-03 08:44:00,
2013-07-03 04:45:00,80.5,75.0,30.06,SE,141,11.1,12.4,82,0.00,,,0.01,TxWx,2013-07-03 08:45:00,
2013-07-03 04:47:00,80.6,75.0,30.06,ESE,118,12.4,12.4,82,0.00,,,0.01,TxWx,2013-07-03 08:47:00,
2013-07-03 04:50:00,80.7,75.0,30.06,SE,141,13.6,14.9,82,0.00,,,0.01,TxWx,2013-07-03 08:50:00,
2013-07-03 04:51:00,80.8,75.0,30.06,SE,141,15.5,15.5,83,0.00,,,0.01,TxWx,2013-07-03 08:51:00,
2013-07-03 04:54:00,80.5,75.0,30.06,SSE,163,13.6,16.1,82,0.00,,,0.01,TxWx,2013-07-03 08:54:00,
2013-07-03 04:56:00,80.7,75.0,30.06,SE,141,12.4,13.0,82,0.00,,,0.01,TxWx,2013-07-03 08:56:00,
2013-07-03 04:57:00,80.5,75.0,30.06,SE,141,13.6,13.6,82,0.00,,,0.01,TxWx,2013-07-03 08:57:00,
2013-07-03 05:00:00,80.8,75.0,30.07,SE,141,10.5,12.4,83,0.00,,,0.01,TxWx,2013-07-03 09:00:00,
2013-07-03 05:02:00,80.7,75.0,30.07,SE,141,12.4,13.6,82,0.00,,,0.01,TxWx,2013-07-03 09:02:00,
2013-07-03 05:04:00,80.7,75.0,30.07,SE,141,9.3,11.1,82,0.00,,,0.01,TxWx,2013-07-03 09:04:00,
2013-07-03 05:06:00,80.6,75.0,30.07,SE,141,9.3,11.1,82,0.00,,,0.01,TxWx,2013-07-03 09:06:00,
2013-07-03 05:07:00,80.7,75.0,30.07,ESE,118,11.1,12.4,82,0.00,,,0.01,TxWx,2013-07-03 09:07:00,
2013-07-03 05:08:00,80.7,75.0,30.07,SE,141,12.4,13.6,83,0.00,,,0.01,TxWx,2013-07-03 09:08:00,
2013-07-03 05:10:00,80.9,75.0,30.07,SE,141,6.8,6.8,83,0.00,,,0.01,TxWx,2013-07-03 09:10:00,
2013-07-03 05:12:00,80.6,75.0,30.07,SE,141,13.0,13.0,82,0.00,,,0.01,TxWx,2013-07-03 09:12:00,
2013-07-03 05:13:00,80.7,75.0,30.07,SE,141,13.0,13.0,82,0.00,,,0.01,TxWx,2013-07-03 09:13:00,
2013-07-03 05:14:00,80.8,75.0,30.07,SE,141,11.8,11.8,83,0.00,,,0.01,TxWx,2013-07-03 09:14:00,
2013-07-03 05:15:00,80.9,75.0,30.07,SE,141,10.5,10.5,83,0.00,,,0.01,TxWx,2013-07-03 09:15:00,
2013-07-03 05:18:00,80.9,75.0,30.07,SE,141,9.3,9.9,83,0.00,,,0.01,TxWx,2013-07-03 09:18:00,
2013-07-03 05:19:00,80.8,75.0,30.07,SE,141,8.0,8.7,83,0.00,,,0.01,TxWx,2013-07-03 09:19:00,
2013-07-03 05:21:00,80.8,75.0,30.07,SE,141,12.4,12.4,83,0.00,,,0.01,TxWx,2013-07-03 09:21:00,
2013-07-03 05:23:00,80.9,75.0,30.07,SE,141,8.0,9.3,83,0.00,,,0.01,TxWx,2013-07-03 09:23:00,
2013-07-03 05:24:00,80.8,75.0,30.07,SE,141,9.3,9.3,83,0.00,,,0.01,TxWx,2013-07-03 09:24:00,
2013-07-03 05:26:00,80.7,75.0,30.07,SE,141,9.9,9.9,83,0.00,,,0.01,TxWx,2013-07-03 09:26:00,
2013-07-03 05:27:00,80.7,75.0,30.07,SE,141,8.0,9.3,83,0.00,,,0.01,TxWx,2013-07-03 09:27:00,
2013-07-03 05:30:00,80.8,75.0,30.07,ESE,118,8.0,8.0,83,0.00,,,0.01,TxWx,2013-07-03 09:30:00,
2013-07-03 05:31:00,80.7,75.0,30.07,SE,141,10.5,10.5,83,0.00,,,0.01,TxWx,2013-07-03 09:31:00,
2013-07-03 05:33:00,80.5,74.0,30.08,ESE,118,11.8,11.8,83,0.00,,,0.01,TxWx,2013-07-03 09:33:00,
2013-07-03 05:35:00,80.2,74.0,30.08,SE,141,6.8,7.4,82,0.00,,,0.02,TxWx,2013-07-03 09:35:00,
2013-07-03 05:37:00,79.6,74.0,30.08,SE,141,9.3,10.5,82,0.00,,,0.02,TxWx,2013-07-03 09:37:00,
2013-07-03 05:38:00,80.0,74.0,30.07,SE,141,8.0,8.0,83,0.00,,,0.02,TxWx,2013-07-03 09:38:00,
2013-07-03 05:40:00,80.3,75.0,30.07,SE,141,9.9,9.9,84,0.00,,,0.02,TxWx,2013-07-03 09:40:00,
2013-07-03 05:41:00,80.3,75.0,30.07,SE,141,13.6,13.6,84,0.00,,,0.02,TxWx,2013-07-03 09:41:00,
2013-07-03 05:43:00,80.3,74.0,30.07,SE,141,16.1,16.1,83,0.06,,,0.02,TxWx,2013-07-03 09:43:00,
2013-07-03 05:44:00,80.7,76.0,30.07,SE,141,12.4,12.4,84,0.06,,,0.02,TxWx,2013-07-03 09:44:00,
2013-07-03 05:46:00,80.8,75.0,30.07,SE,141,13.6,15.5,83,0.06,,,0.02,TxWx,2013-07-03 09:46:00,
2013-07-03 05:47:00,80.7,75.0,30.07,SE,141,17.3,17.3,83,0.06,,,0.02,TxWx,2013-07-03 09:47:00,
2013-07-03 05:49:00,81.0,75.0,30.07,ESE,118,15.5,15.5,82,0.06,,,0.02,TxWx,2013-07-03 09:49:00,
2013-07-03 05:50:00,81.0,75.0,30.07,SE,141,12.4,14.9,82,0.06,,,0.02,TxWx,2013-07-03 09:50:00,
2013-07-03 05:54:00,81.3,75.0,30.07,SE,141,13.0,13.6,81,0.00,,,0.02,TxWx,2013-07-03 09:54:00,
2013-07-03 05:55:00,81.3,74.0,30.07,SE,141,12.4,13.0,81,0.00,,,0.02,TxWx,2013-07-03 09:55:00,
2013-07-03 05:56:00,81.4,75.0,30.07,SE,141,13.0,13.0,81,0.00,,,0.02,TxWx,2013-07-03 09:56:00,
2013-07-03 05:57:00,81.4,75.0,30.07,SE,141,12.4,12.4,81,0.00,,,0.02,TxWx,2013-07-03 09:57:00,
2013-07-03 06:00:00,81.3,75.0,30.07,SE,141,14.2,14.2,81,0.00,,,0.02,TxWx,2013-07-03 10:00:00,
2013-07-03 06:01:00,81.4,75.0,30.07,SE,141,14.9,14.9,81,0.00,,,0.02,TxWx,2013-07-03 10:01:00,
2013-07-03 06:02:00,81.4,75.0,30.07,SE,141,13.0,13.6,81,0.00,,,0.02,TxWx,2013-07-03 10:02:00,
2013-07-03 06:04:00,81.3,74.0,30.07,ESE,118,14.9,14.9,81,0.00,,,0.02,TxWx,2013-07-03 10:04:00,
2013-07-03 06:05:00,81.4,74.0,30.07,SE,141,15.5,16.1,81,0.00,,,0.02,TxWx,2013-07-03 10:05:00,
2013-07-03 06:07:00,81.4,74.0,30.07,SE,141,14.2,16.1,80,0.00,,,0.02,TxWx,2013-07-03 10:07:00,
2013-07-03 06:10:00,81.4,74.0,30.07,SE,141,17.3,17.9,80,0.00,,,0.02,TxWx,2013-07-03 10:10:00,
2013-07-03 06:11:00,81.7,75.0,30.07,SE,141,13.6,15.5,80,0.00,,,0.02,TxWx,2013-07-03 10:11:00,
2013-07-03 06:12:00,81.6,75.0,30.07,ESE,118,14.9,14.9,80,0.00,,,0.02,TxWx,2013-07-03 10:12:00,
2013-07-03 06:15:00,81.5,75.0,30.07,SE,141,18.6,18.6,80,0.00,,,0.02,TxWx,2013-07-03 10:15:00,
2013-07-03 06:17:00,81.7,75.0,30.08,ESE,118,14.9,16.1,80,0.00,,,0.02,TxWx,2013-07-03 10:17:00,
2013-07-03 06:19:00,81.4,74.0,30.08,SE,141,12.4,15.5,80,0.00,,,0.02,TxWx,2013-07-03 10:19:00,
2013-07-03 06:21:00,78.6,71.0,30.08,South,186,24.1,24.1,77,0.00,,,0.03,TxWx,2013-07-03 10:21:00,
2013-07-03 06:23:00,77.6,70.0,30.09,SE,141,16.1,21.7,78,0.12,,,0.10,TxWx,2013-07-03 10:23:00,
2013-07-03 06:25:00,77.1,70.0,30.09,SSE,163,3.1,3.1,80,0.12,,,0.16,TxWx,2013-07-03 10:25:00,
2013-07-03 06:27:00,76.9,71.0,30.09,SSW,208,8.0,8.0,81,0.12,,,0.17,TxWx,2013-07-03 10:27:00,
2013-07-03 06:28:00,76.8,71.0,30.09,SSE,163,4.3,5.0,81,0.12,,,0.18,TxWx,2013-07-03 10:28:00,
2013-07-03 06:30:00,76.9,72.0,30.08,SSE,163,5.6,5.6,84,0.12,,,0.18,TxWx,2013-07-03 10:30:00,
2013-07-03 06:32:00,76.7,72.0,30.08,SSE,163,8.0,11.1,84,0.12,,,0.18,TxWx,2013-07-03 10:32:00,
2013-07-03 06:33:00,76.5,72.0,30.08,SSE,163,3.7,5.0,84,0.84,,,0.18,TxWx,2013-07-03 10:33:00,
2013-07-03 06:35:00,76.6,72.0,30.08,SSE,163,10.5,13.0,85,0.84,,,0.19,TxWx,2013-07-03 10:35:00,
2013-07-03 06:36:00,76.6,72.0,30.08,SSE,163,6.2,6.2,85,0.84,,,0.19,TxWx,2013-07-03 10:36:00,
2013-07-03 06:37:00,76.8,72.0,30.08,SE,141,6.8,8.7,86,0.84,,,0.19,TxWx,2013-07-03 10:37:00,
2013-07-03 06:39:00,77.0,72.0,30.08,SE,141,5.6,5.6,86,0.84,,,0.19,TxWx,2013-07-03 10:39:00,
2013-07-03 06:41:00,77.2,72.0,30.08,SE,141,5.6,6.2,86,0.84,,,0.19,TxWx,2013-07-03 10:41:00,
2013-07-03 06:42:00,77.3,72.0,30.08,East,96,3.7,4.3,86,0.06,,,0.19,TxWx,2013-07-03 10:42:00,
2013-07-03 06:44:00,77.0,72.0,30.08,SSE,163,5.0,5.0,86,0.06,,,0.19,TxWx,2013-07-03 10:44:00,
2013-07-03 06:45:00,77.0,72.0,30.08,SE,141,4.3,5.0,86,0.06,,,0.19,TxWx,2013-07-03 10:45:00,
2013-07-03 06:48:00,76.9,72.0,30.08,SSE,163,5.6,7.4,85,0.06,,,0.19,TxWx,2013-07-03 10:48:00,
2013-07-03 06:49:00,76.9,72.0,30.08,SW,231,2.5,3.1,85,0.06,,,0.19,TxWx,2013-07-03 10:49:00,
2013-07-03 06:50:00,76.9,72.0,30.08,SE,141,2.5,3.1,85,0.06,,,0.19,TxWx,2013-07-03 10:50:00,
2013-07-03 06:53:00,77.6,73.0,30.08,SSE,163,6.2,8.0,86,0.00,,,0.19,TxWx,2013-07-03 10:53:00,
2013-07-03 06:54:00,77.6,73.0,30.08,SE,141,7.4,7.4,86,0.00,,,0.19,TxWx,2013-07-03 10:54:00,
2013-07-03 06:55:00,78.0,74.0,30.08,SSE,163,6.8,6.8,87,0.00,,,0.19,TxWx,2013-07-03 10:55:00,
2013-07-03 06:56:00,78.2,74.0,30.08,SE,141,8.0,9.3,87,0.00,,,0.19,TxWx,2013-07-03 10:56:00,
2013-07-03 06:57:00,78.2,74.0,30.08,SE,141,7.4,7.4,87,0.00,,,0.19,TxWx,2013-07-03 10:57:00,
2013-07-03 07:01:00,79.4,74.0,30.08,SE,141,8.0,8.0,86,0.00,,,0.19,TxWx,2013-07-03 11:01:00,
2013-07-03 07:02:00,79.3,74.0,30.08,SE,141,9.3,9.9,86,0.00,,,0.19,TxWx,2013-07-03 11:02:00,
2013-07-03 07:03:00,79.4,74.0,30.08,SE,141,8.0,8.0,86,0.00,,,0.19,TxWx,2013-07-03 11:03:00,
2013-07-03 07:07:00,79.8,75.0,30.08,ESE,118,8.0,8.0,85,0.00,,,0.19,TxWx,2013-07-03 11:07:00,
2013-07-03 07:08:00,79.7,75.0,30.08,SE,141,6.2,8.0,85,0.00,,,0.19,TxWx,2013-07-03 11:08:00,
2013-07-03 07:09:00,79.8,75.0,30.08,SE,141,7.4,8.7,85,0.00,,,0.19,TxWx,2013-07-03 11:09:00,
2013-07-03 07:13:00,79.9,75.0,30.08,SE,141,8.7,9.9,84,0.00,,,0.19,TxWx,2013-07-03 11:13:00,
2013-07-03 07:14:00,80.1,75.0,30.08,SE,141,6.8,6.8,84,0.00,,,0.19,TxWx,2013-07-03 11:14:00,
2013-07-03 07:16:00,80.2,75.0,30.08,SSE,163,5.6,5.6,84,0.00,,,0.19,TxWx,2013-07-03 11:16:00,
2013-07-03 07:19:00,80.3,75.0,30.08,SE,141,6.2,6.8,84,0.00,,,0.19,TxWx,2013-07-03 11:19:00,
2013-07-03 07:20:00,80.4,75.0,30.08,SE,141,6.8,6.8,84,0.00,,,0.19,TxWx,2013-07-03 11:20:00,
2013-07-03 07:21:00,80.5,75.0,30.08,SE,141,6.2,6.8,84,0.00,,,0.19,TxWx,2013-07-03 11:21:00,
2013-07-03 07:23:00,80.5,76.0,30.08,ESE,118,9.9,9.9,84,0.00,,,0.19,TxWx,2013-07-03 11:23:00,
2013-07-03 07:24:00,80.6,76.0,30.08,SE,141,8.0,8.0,84,0.00,,,0.19,TxWx,2013-07-03 11:24:00,
2013-07-03 07:25:00,80.7,76.0,30.08,SE,141,7.4,8.0,84,0.00,,,0.19,TxWx,2013-07-03 11:25:00,
2013-07-03 07:26:00,80.7,76.0,30.08,SE,141,7.4,8.7,84,0.00,,,0.19,TxWx,2013-07-03 11:26:00,
2013-07-03 07:30:00,80.9,76.0,30.08,SE,141,9.3,9.3,84,0.00,,,0.19,TxWx,2013-07-03 11:30:00,
2013-07-03 07:31:00,80.7,76.0,30.08,ESE,118,12.4,13.6,84,0.00,,,0.19,TxWx,2013-07-03 11:31:00,
2013-07-03 07:32:00,80.8,76.0,30.08,SE,141,14.2,14.9,84,0.00,,,0.19,TxWx,2013-07-03 11:32:00,
2013-07-03 07:33:00,81.0,75.0,30.08,SE,141,13.6,13.6,83,0.00,,,0.19,TxWx,2013-07-03 11:33:00,
2013-07-03 07:36:00,81.3,75.0,30.08,SE,141,13.6,13.6,83,0.00,,,0.19,TxWx,2013-07-03 11:36:00,
2013-07-03 07:38:00,81.3,75.0,30.08,ESE,118,13.0,14.2,82,0.00,,,0.19,TxWx,2013-07-03 11:38:00,
2013-07-03 07:40:00,81.4,75.0,30.08,ESE,118,13.6,13.6,82,0.00,,,0.19,TxWx,2013-07-03 11:40:00,
2013-07-03 07:42:00,81.3,75.0,30.08,SE,141,14.9,14.9,82,0.00,,,0.19,TxWx,2013-07-03 11:42:00,
2013-07-03 07:43:00,81.4,75.0,30.08,SE,141,13.0,14.9,82,0.00,,,0.19,TxWx,2013-07-03 11:43:00,
2013-07-03 07:44:00,81.5,75.0,30.08,ESE,118,14.2,14.2,82,0.00,,,0.19,TxWx,2013-07-03 11:44:00,
2013-07-03 07:45:00,81.2,75.0,30.08,SE,141,13.6,15.5,81,0.00,,,0.19,TxWx,2013-07-03 11:45:00,
2013-07-03 07:48:00,81.5,74.0,30.08,ESE,118,11.8,13.0,81,0.00,,,0.19,TxWx,2013-07-03 11:48:00,
2013-07-03 07:49:00,81.5,75.0,30.09,ESE,118,12.4,12.4,81,0.00,,,0.19,TxWx,2013-07-03 11:49:00,
2013-07-03 07:50:00,81.6,75.0,30.09,SE,141,11.8,13.0,81,0.00,,,0.19,TxWx,2013-07-03 11:50:00,
2013-07-03 07:52:00,81.6,75.0,30.09,ESE,118,11.8,13.6,80,0.00,,,0.19,TxWx,2013-07-03 11:52:00,
2013-07-03 07:54:00,81.6,75.0,30.08,SE,141,13.6,13.6,80,0.00,,,0.19,TxWx,2013-07-03 11:54:00,
2013-07-03 07:55:00,81.7,75.0,30.09,ESE,118,13.0,13.0,80,0.00,,,0.19,TxWx,2013-07-03 11:55:00,
2013-07-03 07:57:00,81.6,75.0,30.09,SE,141,14.2,14.2,81,0.00,,,0.19,TxWx,2013-07-03 11:57:00,
2013-07-03 07:59:00,81.6,75.0,30.09,SE,141,12.4,14.2,81,0.00,,,0.19,TxWx,2013-07-03 11:59:00,
2013-07-03 08:02:00,81.5,75.0,30.09,ESE,118,15.5,16.1,81,0.00,,,0.19,TxWx,2013-07-03 12:02:00,
2013-07-03 08:03:00,81.7,75.0,30.09,ESE,118,13.0,13.6,81,0.00,,,0.19,TxWx,2013-07-03 12:03:00,
2013-07-03 08:07:00,81.6,75.0,30.09,ESE,118,14.2,14.9,80,0.00,,,0.19,TxWx,2013-07-03 12:07:00,
2013-07-03 08:08:00,81.7,75.0,30.09,ESE,118,13.0,14.2,80,0.00,,,0.19,TxWx,2013-07-03 12:08:00,
2013-07-03 08:09:00,81.9,75.0,30.09,ESE,118,11.8,11.8,80,0.00,,,0.19,TxWx,2013-07-03 12:09:00,
2013-07-03 08:13:00,81.9,75.0,30.09,SE,141,13.0,13.0,80,0.00,,,0.19,TxWx,2013-07-03 12:13:00,
2013-07-03 08:14:00,81.8,75.0,30.09,SE,141,12.4,14.9,80,0.00,,,0.19,TxWx,2013-07-03 12:14:00,
2013-07-03 08:16:00,81.7,75.0,30.10,ESE,118,15.5,16.1,80,0.00,,,0.19,TxWx,2013-07-03 12:16:00,
2013-07-03 08:19:00,81.8,75.0,30.10,SE,141,11.8,14.2,80,0.00,,,0.19,TxWx,2013-07-03 12:19:00,
2013-07-03 08:20:00,81.8,75.0,30.09,SE,141,14.2,14.2,80,0.00,,,0.19,TxWx,2013-07-03 12:20:00,
2013-07-03 08:22:00,81.7,75.0,30.10,SE,141,12.4,13.6,80,0.00,,,0.19,TxWx,2013-07-03 12:22:00,
2013-07-03 08:23:00,81.8,75.0,30.10,ESE,118,15.5,15.5,80,0.00,,,0.19,TxWx,2013-07-03 12:23:00,
2013-07-03 08:25:00,81.8,75.0,30.10,ESE,118,12.4,13.6,80,0.00,,,0.19,TxWx,2013-07-03 12:25:00,
2013-07-03 08:28:00,82.0,75.0,30.09,ESE,118,13.0,14.9,81,0.00,,,0.19,TxWx,2013-07-03 12:28:00,
2013-07-03 08:29:00,81.7,75.0,30.10,East,96,14.9,15.5,80,0.00,,,0.19,TxWx,2013-07-03 12:29:00,
2013-07-03 08:30:00,81.8,75.0,30.09,SE,141,14.9,16.1,80,0.00,,,0.19,TxWx,2013-07-03 12:30:00,
2013-07-03 08:34:00,81.7,75.0,30.10,ESE,118,13.0,14.9,80,0.00,,,0.19,TxWx,2013-07-03 12:34:00,
2013-07-03 08:35:00,81.9,75.0,30.10,ESE,118,12.4,12.4,80,0.00,,,0.19,TxWx,2013-07-03 12:35:00,
2013-07-03 08:36:00,81.8,75.0,30.10,SE,141,13.6,13.6,80,0.00,,,0.19,TxWx,2013-07-03 12:36:00,
2013-07-03 08:40:00,81.8,75.0,30.10,ESE,118,14.2,14.2,80,0.00,,,0.19,TxWx,2013-07-03 12:40:00,
2013-07-03 08:42:00,81.8,75.0,30.10,SE,141,17.3,17.3,80,0.00,,,0.19,TxWx,2013-07-03 12:42:00,
2013-07-03 08:44:00,82.0,75.0,30.10,ESE,118,16.1,16.7,79,0.00,,,0.19,TxWx,2013-07-03 12:44:00,
2013-07-03 08:47:00,82.0,75.0,30.10,SE,141,15.5,15.5,80,0.00,,,0.19,TxWx,2013-07-03 12:47:00,
2013-07-03 08:48:00,82.0,75.0,30.10,ESE,118,17.9,18.6,80,0.00,,,0.19,TxWx,2013-07-03 12:48:00,
2013-07-03 08:52:00,81.9,75.0,30.10,SE,141,19.8,19.8,79,0.00,,,0.19,TxWx,2013-07-03 12:52:00,
2013-07-03 08:53:00,82.1,75.0,30.11,ESE,118,17.3,17.3,79,0.00,,,0.19,TxWx,2013-07-03 12:53:00,
2013-07-03 08:54:00,81.9,75.0,30.10,ESE,118,15.5,17.9,79,0.00,,,0.19,TxWx,2013-07-03 12:54:00,
2013-07-03 08:57:00,82.0,75.0,30.10,ESE,118,14.9,16.1,79,0.00,,,0.19,TxWx,2013-07-03 12:57:00,
2013-07-03 08:59:00,81.9,75.0,30.10,ESE,118,17.9,17.9,79,0.00,,,0.19,TxWx,2013-07-03 12:59:00,
2013-07-03 09:00:00,81.9,75.0,30.11,ESE,118,16.1,17.9,79,0.00,,,0.19,TxWx,2013-07-03 13:00:00,
2013-07-03 09:01:00,82.0,75.0,30.10,ESE,118,15.5,15.5,80,0.00,,,0.19,TxWx,2013-07-03 13:01:00,
2013-07-03 09:04:00,81.7,75.0,30.10,ESE,118,17.3,17.3,79,0.00,,,0.19,TxWx,2013-07-03 13:04:00,
2013-07-03 09:05:00,81.8,75.0,30.10,SE,141,15.5,16.1,79,0.00,,,0.19,TxWx,2013-07-03 13:05:00,
2013-07-03 09:06:00,81.7,74.0,30.10,SE,141,19.2,19.2,78,0.00,,,0.19,TxWx,2013-07-03 13:06:00,
2013-07-03 09:10:00,81.9,74.0,30.11,ESE,118,16.7,16.7,78,0.00,,,0.19,TxWx,2013-07-03 13:10:00,
2013-07-03 09:11:00,81.9,74.0,30.11,SE,141,17.9,19.8,78,0.00,,,0.19,TxWx,2013-07-03 13:11:00,
2013-07-03 09:14:00,82.0,74.0,30.11,ESE,118,14.9,14.9,78,0.00,,,0.19,TxWx,2013-07-03 13:14:00,
2013-07-03 09:15:00,82.1,75.0,30.11,ESE,118,15.5,15.5,79,0.00,,,0.19,TxWx,2013-07-03 13:15:00,
2013-07-03 09:17:00,82.0,74.0,30.11,ESE,118,19.2,19.8,78,0.00,,,0.19,TxWx,2013-07-03 13:17:00,
2013-07-03 09:20:00,82.0,74.0,30.11,ESE,118,14.9,14.9,78,0.00,,,0.19,TxWx,2013-07-03 13:20:00,
2013-07-03 09:21:00,82.0,74.0,30.11,ESE,118,14.9,14.9,78,0.00,,,0.19,TxWx,2013-07-03 13:21:00,
2013-07-03 09:23:00,81.9,74.0,30.11,SE,141,18.6,20.4,78,0.00,,,0.19,TxWx,2013-07-03 13:23:00,
2013-07-03 09:24:00,82.1,74.0,30.11,ESE,118,16.7,16.7,78,0.00,,,0.19,TxWx,2013-07-03 13:24:00,
2013-07-03 09:25:00,82.2,74.0,30.11,ESE,118,14.9,16.7,78,0.00,,,0.19,TxWx,2013-07-03 13:25:00,
2013-07-03 09:26:00,82.0,74.0,30.11,ESE,118,19.2,19.2,78,0.00,,,0.19,TxWx,2013-07-03 13:26:00,
2013-07-03 09:29:00,82.2,73.0,30.11,ESE,118,19.2,19.2,76,0.00,,,0.19,TxWx,2013-07-03 13:29:00,
2013-07-03 09:30:00,82.3,73.0,30.11,SE,141,17.9,18.6,76,0.00,,,0.19,TxWx,2013-07-03 13:30:00,
2013-07-03 09:34:00,82.4,73.0,30.11,SE,141,16.1,16.1,75,0.00,,,0.19,TxWx,2013-07-03 13:34:00,
2013-07-03 09:35:00,82.4,73.0,30.11,ESE,118,14.2,14.2,75,0.00,,,0.19,TxWx,2013-07-03 13:35:00,
2013-07-03 09:36:00,82.4,73.0,30.11,ESE,118,15.5,16.1,75,0.00,,,0.19,TxWx,2013-07-03 13:36:00,
2013-07-03 09:39:00,82.3,73.0,30.11,SE,141,16.1,17.9,75,0.00,,,0.19,TxWx,2013-07-03 13:39:00,
2013-07-03 09:40:00,82.1,73.0,30.11,SE,141,17.3,19.2,74,0.00,,,0.19,TxWx,2013-07-03 13:40:00,
2013-07-03 09:41:00,82.2,73.0,30.11,SE,141,17.3,17.3,75,0.00,,,0.19,TxWx,2013-07-03 13:41:00,
2013-07-03 09:43:00,82.2,73.0,30.11,ESE,118,15.5,15.5,76,0.00,,,0.19,TxWx,2013-07-03 13:43:00,
2013-07-03 09:46:00,82.1,73.0,30.11,ESE,118,14.2,17.9,76,0.00,,,0.19,TxWx,2013-07-03 13:46:00,
2013-07-03 09:47:00,82.1,73.0,30.11,SE,141,16.1,17.3,76,0.00,,,0.19,TxWx,2013-07-03 13:47:00,
2013-07-03 09:48:00,82.2,74.0,30.11,SE,141,14.2,14.2,76,0.00,,,0.19,TxWx,2013-07-03 13:48:00,
2013-07-03 09:49:00,82.1,74.0,30.11,SE,141,15.5,15.5,76,0.00,,,0.19,TxWx,2013-07-03 13:49:00,
2013-07-03 09:53:00,82.4,74.0,30.11,ESE,118,13.6,13.6,77,0.00,,,0.19,TxWx,2013-07-03 13:53:00,
2013-07-03 09:54:00,82.0,74.0,30.11,SE,141,14.9,14.9,76,0.00,,,0.19,TxWx,2013-07-03 13:54:00,
2013-07-03 09:55:00,81.8,73.0,30.11,ESE,118,18.6,18.6,76,0.00,,,0.19,TxWx,2013-07-03 13:55:00,
2013-07-03 09:59:00,82.3,73.0,30.12,SE,141,16.1,16.7,76,0.00,,,0.19,TxWx,2013-07-03 13:59:00,
2013-07-03 10:01:00,82.2,73.0,30.12,SE,141,14.9,15.5,75,0.00,,,0.19,TxWx,2013-07-03 14:01:00,
2013-07-03 10:02:00,82.3,73.0,30.12,ESE,118,14.9,16.1,75,0.00,,,0.19,TxWx,2013-07-03 14:02:00,
2013-07-03 10:04:00,82.4,73.0,30.12,SE,141,14.2,19.2,76,0.00,,,0.19,TxWx,2013-07-03 14:04:00,
2013-07-03 10:06:00,82.2,73.0,30.12,SE,141,14.9,15.5,76,0.00,,,0.19,TxWx,2013-07-03 14:06:00,
2013-07-03 10:07:00,82.3,73.0,30.12,ESE,118,14.9,16.1,76,0.00,,,0.19,TxWx,2013-07-03 14:07:00,
2013-07-03 10:10:00,82.3,74.0,30.12,SE,141,14.2,15.5,76,0.00,,,0.19,TxWx,2013-07-03 14:10:00,
2013-07-03 10:12:00,82.2,74.0,30.12,SE,141,14.9,18.6,77,0.00,,,0.19,TxWx,2013-07-03 14:12:00,
2013-07-03 10:13:00,82.1,74.0,30.12,ESE,118,14.9,15.5,77,0.00,,,0.19,TxWx,2013-07-03 14:13:00,
2013-07-03 10:16:00,82.1,74.0,30.12,ESE,118,16.1,16.1,77,0.00,,,0.19,TxWx,2013-07-03 14:16:00,
2013-07-03 10:17:00,82.2,74.0,30.12,ESE,118,14.9,14.9,77,0.00,,,0.19,TxWx,2013-07-03 14:17:00,
2013-07-03 10:18:00,82.0,74.0,30.12,SE,141,16.7,17.3,76,0.00,,,0.19,TxWx,2013-07-03 14:18:00,
2013-07-03 10:21:00,82.3,73.0,30.12,SE,141,14.9,16.1,76,0.00,,,0.19,TxWx,2013-07-03 14:21:00,
2013-07-03 10:22:00,82.4,74.0,30.12,SE,141,16.7,16.7,77,0.00,,,0.19,TxWx,2013-07-03 14:22:00,
2013-07-03 10:25:00,82.2,74.0,30.12,SE,141,16.7,16.7,76,0.00,,,0.19,TxWx,2013-07-03 14:25:00,
2013-07-03 10:26:00,82.3,74.0,30.12,SE,141,14.2,15.5,76,0.00,,,0.19,TxWx,2013-07-03 14:26:00,
2013-07-03 10:27:00,82.4,74.0,30.12,SE,141,13.0,14.2,76,0.00,,,0.19,TxWx,2013-07-03 14:27:00,
2013-07-03 10:31:00,82.3,74.0,30.12,ESE,118,15.5,16.7,77,0.00,,,0.19,TxWx,2013-07-03 14:31:00,
2013-07-03 10:32:00,82.2,74.0,30.12,SE,141,16.7,17.9,77,0.00,,,0.19,TxWx,2013-07-03 14:32:00,
2013-07-03 10:33:00,82.2,74.0,30.12,ESE,118,16.7,19.2,77,0.00,,,0.19,TxWx,2013-07-03 14:33:00,
2013-07-03 10:38:00,82.3,74.0,30.12,SE,141,14.9,16.1,78,0.00,,,0.19,TxWx,2013-07-03 14:38:00,
2013-07-03 10:41:00,82.2,74.0,30.12,SE,141,16.7,17.3,77,0.00,,,0.19,TxWx,2013-07-03 14:41:00,
2013-07-03 10:44:00,82.2,74.0,30.12,SE,141,16.7,16.7,78,0.00,,,0.19,TxWx,2013-07-03 14:44:00,
2013-07-03 10:45:00,82.1,74.0,30.12,ESE,118,17.9,17.9,77,0.00,,,0.19,TxWx,2013-07-03 14:45:00,
2013-07-03 10:46:00,82.2,74.0,30.12,ESE,118,15.5,17.3,77,0.00,,,0.19,TxWx,2013-07-03 14:46:00,
2013-07-03 10:47:00,82.3,74.0,30.12,ESE,118,14.2,15.5,77,0.00,,,0.19,TxWx,2013-07-03 14:47:00,
2013-07-03 10:51:00,82.3,74.0,30.12,ESE,118,16.7,17.3,78,0.00,,,0.19,TxWx,2013-07-03 14:51:00,
2013-07-03 10:52:00,82.3,74.0,30.12,SE,141,14.2,15.5,77,0.00,,,0.19,TxWx,2013-07-03 14:52:00,
2013-07-03 10:53:00,82.3,74.0,30.12,ESE,118,16.1,17.3,78,0.00,,,0.19,TxWx,2013-07-03 14:53:00,
2013-07-03 10:55:00,82.3,74.0,30.12,SE,141,14.9,14.9,78,0.00,,,0.19,TxWx,2013-07-03 14:55:00,
2013-07-03 10:57:00,82.2,74.0,30.12,SE,141,13.0,14.9,77,0.00,,,0.19,TxWx,2013-07-03 14:57:00,
2013-07-03 10:58:00,82.2,74.0,30.12,SE,141,16.1,16.1,77,0.00,,,0.19,TxWx,2013-07-03 14:58:00,
2013-07-03 11:00:00,82.3,74.0,30.12,SE,141,19.8,19.8,77,0.00,,,0.19,TxWx,2013-07-03 15:00:00,
2013-07-03 11:03:00,82.4,74.0,30.12,SE,141,16.1,16.7,76,0.00,,,0.19,TxWx,2013-07-03 15:03:00,
2013-07-03 11:04:00,82.2,74.0,30.13,SE,141,16.7,18.6,76,0.00,,,0.19,TxWx,2013-07-03 15:04:00,
2013-07-03 11:05:00,82.4,73.0,30.12,SE,141,15.5,15.5,76,0.00,,,0.19,TxWx,2013-07-03 15:05:00,
2013-07-03 11:08:00,82.4,74.0,30.13,SE,141,15.5,16.7,76,0.00,,,0.19,TxWx,2013-07-03 15:08:00,
2013-07-03 11:11:00,82.3,74.0,30.13,SE,141,15.5,15.5,77,0.00,,,0.19,TxWx,2013-07-03 15:11:00,
2013-07-03 11:12:00,82.3,74.0,30.13,SE,141,16.7,16.7,77,0.00,,,0.19,TxWx,2013-07-03 15:12:00,
2013-07-03 11:15:00,82.3,74.0,30.13,SE,141,16.1,17.3,77,0.00,,,0.19,TxWx,2013-07-03 15:15:00,
2013-07-03 11:16:00,82.4,74.0,30.13,SE,141,13.6,15.5,77,0.00,,,0.19,TxWx,2013-07-03 15:16:00,
2013-07-03 11:17:00,82.4,74.0,30.13,SE,141,18.6,18.6,77,0.00,,,0.19,TxWx,2013-07-03 15:17:00,
2013-07-03 11:19:00,82.5,75.0,30.13,SE,141,11.8,12.4,77,0.00,,,0.19,TxWx,2013-07-03 15:19:00,
2013-07-03 11:20:00,82.4,74.0,30.13,SE,141,16.1,16.1,77,0.00,,,0.19,TxWx,2013-07-03 15:20:00,
2013-07-03 11:21:00,82.4,74.0,30.13,ESE,118,14.9,14.9,77,0.00,,,0.19,TxWx,2013-07-03 15:21:00,
2013-07-03 11:22:00,82.4,74.0,30.13,SE,141,14.9,14.9,78,0.00,,,0.19,TxWx,2013-07-03 15:22:00,
2013-07-03 11:26:00,82.3,74.0,30.13,ESE,118,12.4,14.9,78,0.00,,,0.19,TxWx,2013-07-03 15:26:00,
2013-07-03 11:27:00,82.3,74.0,30.13,SE,141,16.1,17.9,78,0.00,,,0.19,TxWx,2013-07-03 15:27:00,
2013-07-03 11:28:00,82.2,74.0,30.12,ESE,118,14.2,14.9,78,0.00,,,0.19,TxWx,2013-07-03 15:28:00,
2013-07-03 11:29:00,82.3,74.0,30.12,SE,141,14.2,14.9,78,0.00,,,0.19,TxWx,2013-07-03 15:29:00,
2013-07-03 11:32:00,82.4,74.0,30.12,ESE,118,11.1,13.0,78,0.00,,,0.19,TxWx,2013-07-03 15:32:00,
2013-07-03 11:33:00,82.4,75.0,30.12,SE,141,13.6,13.6,79,0.00,,,0.19,TxWx,2013-07-03 15:33:00,
2013-07-03 11:34:00,82.4,75.0,30.12,SE,141,11.1,12.4,79,0.00,,,0.19,TxWx,2013-07-03 15:34:00,
2013-07-03 11:35:00,82.3,75.0,30.13,ESE,118,11.1,14.2,79,0.00,,,0.19,TxWx,2013-07-03 15:35:00,
2013-07-03 11:37:00,81.8,75.0,30.13,SE,141,17.3,17.3,79,0.00,,,0.19,TxWx,2013-07-03 15:37:00,
2013-07-03 11:40:00,81.7,75.0,30.13,SE,141,8.7,9.9,79,0.00,,,0.19,TxWx,2013-07-03 15:40:00,
2013-07-03 11:41:00,81.6,75.0,30.13,SSE,163,7.4,9.3,80,0.00,,,0.19,TxWx,2013-07-03 15:41:00,
2013-07-03 11:45:00,81.2,74.0,30.13,SE,141,12.4,14.2,80,0.00,,,0.19,TxWx,2013-07-03 15:45:00,
2013-07-03 11:46:00,81.0,74.0,30.13,SE,141,9.9,11.8,80,0.00,,,0.19,TxWx,2013-07-03 15:46:00,
2013-07-03 11:47:00,81.3,74.0,30.13,ESE,118,8.7,9.9,81,0.00,,,0.19,TxWx,2013-07-03 15:47:00,
2013-07-03 11:50:00,81.2,74.0,30.13,SE,141,11.8,13.0,81,0.00,,,0.19,TxWx,2013-07-03 15:50:00,
2013-07-03 11:51:00,81.4,75.0,30.13,SE,141,12.4,12.4,81,0.00,,,0.19,TxWx,2013-07-03 15:51:00,
2013-07-03 11:52:00,81.4,74.0,30.13,SE,141,11.8,13.6,81,0.00,,,0.19,TxWx,2013-07-03 15:52:00,
2013-07-03 11:54:00,81.8,75.0,30.13,SE,141,13.6,14.2,81,0.00,,,0.19,TxWx,2013-07-03 15:54:00,
2013-07-03 11:55:00,81.9,75.0,30.12,SE,141,14.9,15.5,81,0.00,,,0.19,TxWx,2013-07-03 15:55:00,
2013-07-03 11:57:00,82.1,75.0,30.12,SE,141,14.9,14.9,80,0.00,,,0.19,TxWx,2013-07-03 15:57:00,
2013-07-03 11:58:00,82.3,75.0,30.13,SE,141,14.2,15.5,80,0.00,,,0.19,TxWx,2013-07-03 15:58:00,
2013-07-03 12:01:00,82.5,75.0,30.12,SE,141,15.5,16.1,79,0.00,,,0.19,TxWx,2013-07-03 16:01:00,
2013-07-03 12:05:00,82.9,75.0,30.12,ESE,118,15.5,16.1,78,0.00,,,0.19,TxWx,2013-07-03 16:05:00,
2013-07-03 12:06:00,82.7,75.0,30.12,SE,141,16.7,17.3,78,0.00,,,0.19,TxWx,2013-07-03 16:06:00,
2013-07-03 12:08:00,82.7,75.0,30.12,SE,141,17.3,19.8,76,0.00,,,0.19,TxWx,2013-07-03 16:08:00,
2013-07-03 12:09:00,82.7,75.0,30.12,SE,141,19.2,20.4,76,0.00,,,0.19,TxWx,2013-07-03 16:09:00,
2013-07-03 12:10:00,82.8,74.0,30.12,ESE,118,18.6,18.6,76,0.00,,,0.19,TxWx,2013-07-03 16:10:00,
2013-07-03 12:11:00,82.9,74.0,30.12,SE,141,19.8,20.4,74,0.00,,,0.19,TxWx,2013-07-03 16:11:00,
2013-07-03 12:14:00,83.0,74.0,30.12,ESE,118,16.7,19.2,74,0.00,,,0.19,TxWx,2013-07-03 16:14:00,
2013-07-03 12:16:00,83.3,74.0,30.12,SE,141,16.7,16.7,74,0.00,,,0.19,TxWx,2013-07-03 16:16:00,
2013-07-03 12:17:00,83.1,74.0,30.12,SE,141,17.3,18.6,74,0.00,,,0.19,TxWx,2013-07-03 16:17:00,
2013-07-03 12:18:00,83.3,74.0,30.12,ESE,118,22.9,22.9,75,0.00,,,0.19,TxWx,2013-07-03 16:18:00,
2013-07-03 12:20:00,82.7,74.0,30.12,ESE,118,18.6,18.6,76,0.00,,,0.19,TxWx,2013-07-03 16:20:00,
2013-07-03 12:22:00,82.5,75.0,30.13,ESE,118,16.7,16.7,77,0.00,,,0.19,TxWx,2013-07-03 16:22:00,
2013-07-03 12:23:00,82.3,74.0,30.13,ESE,118,17.3,17.3,78,0.00,,,0.19,TxWx,2013-07-03 16:23:00,
2013-07-03 12:26:00,82.6,75.0,30.12,SE,141,16.1,16.1,78,0.00,,,0.19,TxWx,2013-07-03 16:26:00,
2013-07-03 12:27:00,82.6,75.0,30.12,ESE,118,14.2,14.2,78,0.00,,,0.19,TxWx,2013-07-03 16:27:00,
2013-07-03 12:29:00,82.6,75.0,30.12,ESE,118,13.0,13.0,78,0.00,,,0.19,TxWx,2013-07-03 16:29:00,
2013-07-03 12:30:00,82.6,76.0,30.12,ESE,118,13.6,15.5,79,0.00,,,0.19,TxWx,2013-07-03 16:30:00,
2013-07-03 12:31:00,83.0,76.0,30.12,East,96,12.4,13.6,79,0.00,,,0.19,TxWx,2013-07-03 16:31:00,
2013-07-03 12:34:00,82.7,76.0,30.12,ESE,118,12.4,12.4,79,0.00,,,0.19,TxWx,2013-07-03 16:34:00,
2013-07-03 12:35:00,82.5,74.0,30.12,ESE,118,14.9,14.9,78,0.00,,,0.19,TxWx,2013-07-03 16:35:00,
2013-07-03 12:36:00,82.4,75.0,30.12,ESE,118,16.1,16.7,79,0.00,,,0.19,TxWx,2013-07-03 16:36:00,
2013-07-03 12:37:00,82.4,74.0,30.12,ESE,118,16.1,16.1,78,0.00,,,0.19,TxWx,2013-07-03 16:37:00,
2013-07-03 12:39:00,82.7,76.0,30.12,SE,141,15.5,16.1,79,0.00,,,0.19,TxWx,2013-07-03 16:39:00,
2013-07-03 12:40:00,82.5,75.0,30.12,SE,141,17.3,17.3,78,0.00,,,0.19,TxWx,2013-07-03 16:40:00,
2013-07-03 12:41:00,82.8,76.0,30.12,SE,141,16.7,16.7,79,0.00,,,0.19,TxWx,2013-07-03 16:41:00,
2013-07-03 12:42:00,82.4,74.0,30.12,SE,141,17.3,17.9,78,0.00,,,0.19,TxWx,2013-07-03 16:42:00,
2013-07-03 12:45:00,82.4,74.0,30.12,ESE,118,15.5,17.3,77,0.00,,,0.19,TxWx,2013-07-03 16:45:00,
2013-07-03 12:48:00,82.7,75.0,30.12,ESE,118,16.1,16.1,77,0.00,,,0.19,TxWx,2013-07-03 16:48:00,
2013-07-03 12:50:00,82.9,75.0,30.12,SE,141,17.9,17.9,78,0.00,,,0.19,TxWx,2013-07-03 16:50:00,
2013-07-03 12:51:00,82.8,75.0,30.12,SE,141,17.3,17.3,78,0.00,,,0.19,TxWx,2013-07-03 16:51:00,
2013-07-03 12:54:00,82.7,75.0,30.12,ESE,118,15.5,16.1,78,0.00,,,0.19,TxWx,2013-07-03 16:54:00,
2013-07-03 12:56:00,82.9,75.0,30.12,ESE,118,16.1,16.1,77,0.00,,,0.19,TxWx,2013-07-03 16:56:00,
2013-07-03 13:01:00,82.0,73.0,30.12,SE,141,17.9,22.3,76,0.00,,,0.19,TxWx,2013-07-03 17:01:00,
2013-07-03 13:02:00,81.4,72.0,30.12,SSE,163,13.6,17.9,75,0.00,,,0.19,TxWx,2013-07-03 17:02:00,
2013-07-03 13:03:00,80.9,72.0,30.12,SE,141,22.3,22.3,75,0.00,,,0.19,TxWx,2013-07-03 17:03:00,
2013-07-03 13:07:00,81.0,73.0,30.12,SE,141,19.2,19.2,77,0.00,,,0.19,TxWx,2013-07-03 17:07:00,
2013-07-03 13:09:00,81.0,73.0,30.12,SE,141,12.4,14.9,78,0.00,,,0.19,TxWx,2013-07-03 17:09:00,
2013-07-03 13:12:00,81.5,74.0,30.12,SE,141,14.9,14.9,80,0.00,,,0.19,TxWx,2013-07-03 17:12:00,
2013-07-03 13:15:00,81.7,75.0,30.12,SE,141,12.4,13.0,80,0.00,,,0.19,TxWx,2013-07-03 17:15:00,
2013-07-03 13:17:00,82.0,75.0,30.12,SE,141,13.0,13.0,80,0.00,,,0.19,TxWx,2013-07-03 17:17:00,
2013-07-03 13:18:00,82.0,75.0,30.12,ESE,118,13.0,13.0,80,0.00,,,0.19,TxWx,2013-07-03 17:18:00,
2013-07-03 13:21:00,82.4,75.0,30.11,SE,141,16.7,16.7,80,0.00,,,0.19,TxWx,2013-07-03 17:21:00,
2013-07-03 13:23:00,82.6,75.0,30.11,SE,141,21.7,21.7,78,0.00,,,0.19,TxWx,2013-07-03 17:23:00,
2013-07-03 13:24:00,82.5,75.0,30.11,SE,141,16.7,18.6,77,0.00,,,0.19,TxWx,2013-07-03 17:24:00,
2013-07-03 13:26:00,82.8,75.0,30.11,ESE,118,17.3,17.3,77,0.00,,,0.19,TxWx,2013-07-03 17:26:00,
2013-07-03 13:27:00,82.8,75.0,30.11,SE,141,17.9,17.9,77,0.00,,,0.19,TxWx,2013-07-03 17:27:00,
2013-07-03 13:29:00,82.9,74.0,30.10,SE,141,17.3,19.2,76,0.00,,,0.19,TxWx,2013-07-03 17:29:00,
2013-07-03 13:32:00,83.1,74.0,30.10,ESE,118,16.1,17.9,76,0.00,,,0.19,TxWx,2013-07-03 17:32:00,
2013-07-03 13:33:00,83.0,74.0,30.10,SE,141,15.5,16.1,75,0.00,,,0.19,TxWx,2013-07-03 17:33:00,
2013-07-03 13:35:00,83.0,74.0,30.10,ESE,118,18.6,18.6,76,0.00,,,0.19,TxWx,2013-07-03 17:35:00,
2013-07-03 13:38:00,83.0,74.0,30.11,SE,141,15.5,15.5,76,0.00,,,0.19,TxWx,2013-07-03 17:38:00,
2013-07-03 13:39:00,83.2,75.0,30.11,ESE,118,14.9,14.9,77,0.00,,,0.19,TxWx,2013-07-03 17:39:00,
2013-07-03 13:40:00,82.8,75.0,30.11,ESE,118,18.6,20.4,76,0.00,,,0.19,TxWx,2013-07-03 17:40:00,
2013-07-03 13:41:00,82.8,74.0,30.10,SE,141,21.7,22.3,76,0.00,,,0.19,TxWx,2013-07-03 17:41:00,
2013-07-03 13:43:00,83.0,74.0,30.10,ESE,118,17.9,19.8,75,0.00,,,0.19,TxWx,2013-07-03 17:43:00,
2013-07-03 13:44:00,83.0,74.0,30.10,SE,141,18.6,21.0,75,0.00,,,0.19,TxWx,2013-07-03 17:44:00,
2013-07-03 13:46:00,83.3,74.0,30.10,SE,141,17.3,17.3,75,0.00,,,0.19,TxWx,2013-07-03 17:46:00,
2013-07-03 13:50:00,83.4,74.0,30.10,SE,141,14.2,14.9,76,0.00,,,0.19,TxWx,2013-07-03 17:50:00,
2013-07-03 13:51:00,83.4,75.0,30.10,SE,141,14.9,15.5,76,0.00,,,0.19,TxWx,2013-07-03 17:51:00,
2013-07-03 13:55:00,83.3,74.0,30.10,SE,141,17.3,19.2,75,0.00,,,0.19,TxWx,2013-07-03 17:55:00,
2013-07-03 13:56:00,83.4,74.0,30.10,SE,141,16.1,17.3,76,0.00,,,0.19,TxWx,2013-07-03 17:56:00,
2013-07-03 13:57:00,83.3,75.0,30.10,SE,141,17.3,19.2,76,0.00,,,0.19,TxWx,2013-07-03 17:57:00,
2013-07-03 13:59:00,83.0,75.0,30.10,SE,141,17.9,17.9,76,0.00,,,0.19,TxWx,2013-07-03 17:59:00,
2013-07-03 14:02:00,82.8,75.0,30.10,SE,141,17.3,17.9,78,0.00,,,0.19,TxWx,2013-07-03 18:02:00,
2013-07-03 14:04:00,82.9,75.0,30.10,SE,141,16.1,16.1,77,0.00,,,0.19,TxWx,2013-07-03 18:04:00,
2013-07-03 14:05:00,82.8,75.0,30.10,SE,141,16.1,18.6,77,0.00,,,0.19,TxWx,2013-07-03 18:05:00,
2013-07-03 14:07:00,82.9,74.0,30.10,SE,141,19.8,19.8,75,0.00,,,0.19,TxWx,2013-07-03 18:07:00,
2013-07-03 14:09:00,83.0,74.0,30.10,SE,141,21.7,21.7,74,0.00,,,0.19,TxWx,2013-07-03 18:09:00,
2013-07-03 14:11:00,83.1,74.0,30.09,SE,141,17.9,17.9,74,0.00,,,0.19,TxWx,2013-07-03 18:11:00,
2013-07-03 14:12:00,83.0,74.0,30.09,SE,141,16.1,16.7,74,0.00,,,0.19,TxWx,2013-07-03 18:12:00,
2013-07-03 14:13:00,83.1,74.0,30.09,SE,141,19.8,19.8,75,0.00,,,0.19,TxWx,2013-07-03 18:13:00,
2013-07-03 14:16:00,83.2,74.0,30.09,SE,141,13.6,14.9,75,0.00,,,0.19,TxWx,2013-07-03 18:16:00,
2013-07-03 14:17:00,83.5,75.0,30.09,SE,141,13.0,13.0,76,0.00,,,0.19,TxWx,2013-07-03 18:17:00,
2013-07-03 14:18:00,83.0,75.0,30.09,SE,141,17.3,19.2,76,0.00,,,0.19,TxWx,2013-07-03 18:18:00,
2013-07-03 14:19:00,83.0,75.0,30.09,SE,141,17.3,18.6,76,0.00,,,0.19,TxWx,2013-07-03 18:19:00,
2013-07-03 14:21:00,83.0,75.0,30.09,SE,141,17.9,17.9,77,0.00,,,0.19,TxWx,2013-07-03 18:21:00,
2013-07-03 14:22:00,83.0,75.0,30.09,SE,141,14.2,14.9,77,0.00,,,0.19,TxWx,2013-07-03 18:22:00,
2013-07-03 14:24:00,83.2,75.0,30.09,SE,141,16.7,16.7,77,0.00,,,0.19,TxWx,2013-07-03 18:24:00,
2013-07-03 14:26:00,83.0,75.0,30.09,SE,141,17.3,19.2,77,0.00,,,0.19,TxWx,2013-07-03 18:26:00,
2013-07-03 14:27:00,83.0,75.0,30.09,SE,141,17.3,17.3,77,0.00,,,0.19,TxWx,2013-07-03 18:27:00,
2013-07-03 14:29:00,82.9,75.0,30.09,SE,141,16.7,18.6,77,0.00,,,0.19,TxWx,2013-07-03 18:29:00,
2013-07-03 14:32:00,82.9,75.0,30.09,ESE,118,19.8,20.4,77,0.00,,,0.19,TxWx,2013-07-03 18:32:00,
2013-07-03 14:33:00,83.1,75.0,30.09,ESE,118,16.1,17.3,77,0.00,,,0.19,TxWx,2013-07-03 18:33:00,
2013-07-03 14:35:00,83.0,75.0,30.09,ESE,118,16.1,16.1,77,0.00,,,0.19,TxWx,2013-07-03 18:35:00,
2013-07-03 14:36:00,82.7,75.0,30.09,SE,141,17.3,19.2,77,0.00,,,0.19,TxWx,2013-07-03 18:36:00,
2013-07-03 14:38:00,83.1,75.0,30.09,SE,141,17.3,17.3,78,0.00,,,0.19,TxWx,2013-07-03 18:38:00,
2013-07-03 14:39:00,82.9,75.0,30.09,SE,141,19.2,19.2,77,0.00,,,0.19,TxWx,2013-07-03 18:39:00,
2013-07-03 14:41:00,82.8,75.0,30.09,SE,141,17.9,17.9,77,0.00,,,0.19,TxWx,2013-07-03 18:41:00,
2013-07-03 14:43:00,83.1,75.0,30.09,ESE,118,16.1,17.9,77,0.00,,,0.19,TxWx,2013-07-03 18:43:00,
2013-07-03 14:44:00,82.9,75.0,30.09,SE,141,19.8,19.8,77,0.00,,,0.19,TxWx,2013-07-03 18:44:00,
2013-07-03 14:47:00,83.0,75.0,30.09,SE,141,16.7,18.6,77,0.00,,,0.19,TxWx,2013-07-03 18:47:00,
2013-07-03 14:48:00,82.8,75.0,30.09,ESE,118,17.3,17.9,77,0.00,,,0.19,TxWx,2013-07-03 18:48:00,
2013-07-03 14:49:00,83.1,75.0,30.09,SE,141,16.7,16.7,77,0.00,,,0.19,TxWx,2013-07-03 18:49:00,
2013-07-03 14:53:00,83.1,75.0,30.09,SE,141,16.7,16.7,77,0.00,,,0.19,TxWx,2013-07-03 18:53:00,
2013-07-03 14:54:00,83.0,75.0,30.09,SE,141,18.6,18.6,77,0.00,,,0.19,TxWx,2013-07-03 18:54:00,
2013-07-03 14:57:00,82.8,75.0,30.08,SE,141,19.8,19.8,76,0.00,,,0.19,TxWx,2013-07-03 18:57:00,
2013-07-03 14:59:00,83.1,75.0,30.08,SE,141,14.9,16.7,77,0.00,,,0.19,TxWx,2013-07-03 18:59:00,
2013-07-03 15:02:00,83.0,75.0,30.08,ESE,118,15.5,15.5,76,0.00,,,0.19,TxWx,2013-07-03 19:02:00,
2013-07-03 15:04:00,83.4,75.0,30.08,ESE,118,14.9,14.9,77,0.00,,,0.19,TxWx,2013-07-03 19:04:00,
2013-07-03 15:05:00,83.3,75.0,30.08,SE,141,14.2,14.2,77,0.00,,,0.19,TxWx,2013-07-03 19:05:00,
2013-07-03 15:07:00,83.3,75.0,30.08,SE,141,14.2,15.5,77,0.00,,,0.19,TxWx,2013-07-03 19:07:00,
2013-07-03 15:08:00,83.1,75.0,30.08,SE,141,13.0,15.5,77,0.00,,,0.19,TxWx,2013-07-03 19:08:00,
2013-07-03 15:10:00,83.3,75.0,30.08,ESE,118,15.5,16.1,77,0.00,,,0.19,TxWx,2013-07-03 19:10:00,
2013-07-03 15:11:00,83.3,75.0,30.08,SE,141,14.2,14.2,77,0.00,,,0.19,TxWx,2013-07-03 19:11:00,
2013-07-03 15:13:00,83.2,75.0,30.08,SE,141,14.9,14.9,77,0.00,,,0.19,TxWx,2013-07-03 19:13:00,
2013-07-03 15:16:00,83.3,75.0,30.08,SE,141,14.9,14.9,77,0.00,,,0.19,TxWx,2013-07-03 19:16:00,
2013-07-03 15:17:00,83.2,75.0,30.08,SE,141,15.5,17.3,76,0.00,,,0.19,TxWx,2013-07-03 19:17:00,
2013-07-03 15:18:00,83.3,75.0,30.08,SE,141,16.1,16.1,77,0.00,,,0.19,TxWx,2013-07-03 19:18:00,
2013-07-03 15:19:00,83.4,75.0,30.08,SE,141,14.9,14.9,77,0.00,,,0.19,TxWx,2013-07-03 19:19:00,
2013-07-03 15:21:00,83.3,75.0,30.08,SE,141,16.7,18.6,77,0.00,,,0.19,TxWx,2013-07-03 19:21:00,
2013-07-03 15:23:00,82.9,75.0,30.08,SE,141,16.1,18.6,76,0.00,,,0.19,TxWx,2013-07-03 19:23:00,
2013-07-03 15:24:00,83.1,75.0,30.08,SE,141,14.2,16.7,77,0.00,,,0.19,TxWx,2013-07-03 19:24:00,
2013-07-03 15:27:00,83.0,75.0,30.08,SE,141,16.7,17.9,77,0.00,,,0.19,TxWx,2013-07-03 19:27:00,
2013-07-03 15:29:00,82.9,75.0,30.08,ESE,118,15.5,17.9,77,0.00,,,0.19,TxWx,2013-07-03 19:29:00,
2013-07-03 15:30:00,83.0,75.0,30.08,ESE,118,12.4,13.6,78,0.00,,,0.19,TxWx,2013-07-03 19:30:00,
2013-07-03 15:31:00,83.2,75.0,30.08,SE,141,10.5,11.8,78,0.00,,,0.19,TxWx,2013-07-03 19:31:00,
2013-07-03 15:35:00,82.8,75.0,30.07,SSE,163,15.5,15.5,78,0.00,,,0.19,TxWx,2013-07-03 19:35:00,
2013-07-03 15:36:00,82.9,76.0,30.07,SE,141,14.9,15.5,79,0.00,,,0.19,TxWx,2013-07-03 19:36:00,
2013-07-03 15:41:00,81.8,75.0,30.07,SE,141,14.9,14.9,80,0.00,,,0.19,TxWx,2013-07-03 19:41:00,
2013-07-03 15:42:00,81.7,75.0,30.07,SE,141,14.2,15.5,80,0.00,,,0.19,TxWx,2013-07-03 19:42:00,
2013-07-03 15:46:00,82.1,76.0,30.07,ESE,118,17.9,17.9,81,0.00,,,0.19,TxWx,2013-07-03 19:46:00,
2013-07-03 15:47:00,82.1,75.0,30.07,SE,141,13.6,14.9,81,0.00,,,0.19,TxWx,2013-07-03 19:47:00,
2013-07-03 15:48:00,82.2,75.0,30.07,SE,141,11.1,13.0,80,0.00,,,0.19,TxWx,2013-07-03 19:48:00,
2013-07-03 15:52:00,82.9,76.0,30.07,SE,141,14.9,16.7,79,0.00,,,0.19,TxWx,2013-07-03 19:52:00,
2013-07-03 15:53:00,82.9,76.0,30.07,SE,141,19.2,19.2,79,0.00,,,0.19,TxWx,2013-07-03 19:53:00,
2013-07-03 15:54:00,82.9,75.0,30.07,SE,141,13.0,15.5,78,0.00,,,0.19,TxWx,2013-07-03 19:54:00,
2013-07-03 15:58:00,82.9,75.0,30.07,SE,141,12.4,14.2,78,0.00,,,0.19,TxWx,2013-07-03 19:58:00,
2013-07-03 16:00:00,82.9,75.0,30.07,SE,141,16.7,17.9,78,0.00,,,0.19,TxWx,2013-07-03 20:00:00,
2013-07-03 16:02:00,83.0,75.0,30.07,SE,141,14.2,14.9,77,0.00,,,0.19,TxWx,2013-07-03 20:02:00,
2013-07-03 16:05:00,83.1,75.0,30.07,SE,141,19.2,19.2,78,0.00,,,0.19,TxWx,2013-07-03 20:05:00,
2013-07-03 16:06:00,83.1,75.0,30.07,SE,141,16.1,16.1,78,0.00,,,0.19,TxWx,2013-07-03 20:06:00,
2013-07-03 16:07:00,83.2,75.0,30.07,ESE,118,15.5,17.3,78,0.00,,,0.19,TxWx,2013-07-03 20:07:00,
2013-07-03 16:10:00,80.8,73.0,30.07,SE,141,24.1,24.8,78,0.00,,,0.21,TxWx,2013-07-03 20:10:00,
2013-07-03 16:11:00,80.0,72.0,30.07,SE,141,24.1,24.1,77,0.00,,,0.22,TxWx,2013-07-03 20:11:00,
2013-07-03 16:12:00,80.2,72.0,30.07,SE,141,19.8,19.8,77,0.18,,,0.22,TxWx,2013-07-03 20:12:00,
2013-07-03 16:15:00,80.0,72.0,30.07,SE,141,14.9,16.1,78,0.18,,,0.22,TxWx,2013-07-03 20:15:00,
2013-07-03 16:17:00,80.4,73.0,30.07,SE,141,15.5,15.5,79,0.18,,,0.22,TxWx,2013-07-03 20:17:00,
2013-07-03 16:18:00,80.5,73.0,30.07,SE,141,14.9,17.3,80,0.18,,,0.22,TxWx,2013-07-03 20:18:00,
2013-07-03 16:20:00,80.6,73.0,30.08,SE,141,19.2,19.2,78,0.18,,,0.22,TxWx,2013-07-03 20:20:00,
2013-07-03 16:22:00,81.4,73.0,30.08,SSE,163,13.0,14.2,77,0.00,,,0.22,TxWx,2013-07-03 20:22:00,
2013-07-03 16:24:00,81.3,73.0,30.08,ESE,118,14.9,14.9,76,0.00,,,0.22,TxWx,2013-07-03 20:24:00,
2013-07-03 16:28:00,81.9,74.0,30.07,SE,141,11.8,11.8,76,0.00,,,0.22,TxWx,2013-07-03 20:28:00,
2013-07-03 16:29:00,82.0,74.0,30.07,SE,141,9.3,10.5,77,0.00,,,0.22,TxWx,2013-07-03 20:29:00,
2013-07-03 16:30:00,82.0,74.0,30.07,SE,141,12.4,12.4,77,0.00,,,0.22,TxWx,2013-07-03 20:30:00,
2013-07-03 16:32:00,82.3,74.0,30.08,SE,141,14.2,14.2,78,0.00,,,0.22,TxWx,2013-07-03 20:32:00,
2013-07-03 16:33:00,82.0,74.0,30.08,SE,141,15.5,15.5,78,0.00,,,0.22,TxWx,2013-07-03 20:33:00,
2013-07-03 16:34:00,82.1,74.0,30.08,SE,141,14.9,16.1,78,0.00,,,0.22,TxWx,2013-07-03 20:34:00,
2013-07-03 16:36:00,80.4,72.0,30.07,SE,141,28.5,29.1,76,0.00,,,0.22,TxWx,2013-07-03 20:36:00,
2013-07-03 16:38:00,78.9,71.0,30.08,ESE,118,17.3,17.3,77,0.00,,,0.26,TxWx,2013-07-03 20:38:00,
2013-07-03 16:39:00,78.8,72.0,30.08,SE,141,13.6,14.2,78,0.00,,,0.26,TxWx,2013-07-03 20:39:00,
2013-07-03 16:41:00,79.1,72.0,30.08,SSE,163,12.4,13.6,80,0.00,,,0.27,TxWx,2013-07-03 20:41:00,
2013-07-03 16:45:00,78.9,72.0,30.08,SSE,163,9.9,9.9,81,0.30,,,0.27,TxWx,2013-07-03 20:45:00,
2013-07-03 16:46:00,79.1,72.0,30.08,SE,141,8.0,8.7,81,0.30,,,0.27,TxWx,2013-07-03 20:46:00,
2013-07-03 16:48:00,79.2,72.0,30.08,SE,141,8.0,8.0,81,0.30,,,0.27,TxWx,2013-07-03 20:48:00,
2013-07-03 16:51:00,80.2,74.0,30.08,SE,141,7.4,7.4,82,0.30,,,0.27,TxWx,2013-07-03 20:51:00,
2013-07-03 16:52:00,79.9,74.0,30.07,SE,141,8.0,8.0,81,0.00,,,0.27,TxWx,2013-07-03 20:52:00,
2013-07-03 16:53:00,79.7,73.0,30.07,SE,141,8.7,10.5,81,0.00,,,0.27,TxWx,2013-07-03 20:53:00,
2013-07-03 16:54:00,80.0,73.0,30.07,SE,141,8.0,8.0,81,0.00,,,0.27,TxWx,2013-07-03 20:54:00,
2013-07-03 16:57:00,80.7,74.0,30.08,SE,141,6.8,7.4,81,0.00,,,0.27,TxWx,2013-07-03 20:57:00,
2013-07-03 16:58:00,80.7,74.0,30.07,SE,141,7.4,7.4,81,0.00,,,0.27,TxWx,2013-07-03 20:58:00,
2013-07-03 16:59:00,80.7,74.0,30.07,SSE,163,6.2,8.0,81,0.00,,,0.27,TxWx,2013-07-03 20:59:00,
2013-07-03 17:03:00,80.9,74.0,30.07,SE,141,7.4,8.0,81,0.00,,,0.27,TxWx,2013-07-03 21:03:00,
2013-07-03 17:04:00,81.0,75.0,30.08,SSE,163,8.0,8.0,81,0.00,,,0.27,TxWx,2013-07-03 21:04:00,
2013-07-03 17:05:00,81.3,75.0,30.08,South,186,6.8,8.0,81,0.00,,,0.27,TxWx,2013-07-03 21:05:00,
2013-07-03 17:09:00,81.7,76.0,30.07,SE,141,8.0,9.3,81,0.00,,,0.27,TxWx,2013-07-03 21:09:00,
2013-07-03 17:11:00,81.9,75.0,30.07,SE,141,11.1,11.1,81,0.00,,,0.27,TxWx,2013-07-03 21:11:00,
2013-07-03 17:12:00,82.1,75.0,30.07,SE,141,7.4,8.7,81,0.00,,,0.27,TxWx,2013-07-03 21:12:00,
2013-07-03 17:16:00,81.1,74.0,30.07,SE,141,15.5,15.5,79,0.00,,,0.27,TxWx,2013-07-03 21:16:00,
2013-07-03 17:18:00,80.6,74.0,30.07,SE,141,24.8,24.8,79,0.00,,,0.27,TxWx,2013-07-03 21:18:00,
2013-07-03 17:19:00,80.5,73.0,30.07,SE,141,18.6,21.0,79,0.00,,,0.27,TxWx,2013-07-03 21:19:00,
2013-07-03 17:20:00,80.2,73.0,30.07,SE,141,17.9,19.2,79,0.00,,,0.27,TxWx,2013-07-03 21:20:00,
2013-07-03 17:21:00,80.3,73.0,30.07,ESE,118,16.7,16.7,80,0.00,,,0.27,TxWx,2013-07-03 21:21:00,
2013-07-03 17:24:00,80.2,73.0,30.07,ESE,118,14.2,16.7,80,0.00,,,0.27,TxWx,2013-07-03 21:24:00,
2013-07-03 17:26:00,80.0,73.0,30.07,ESE,118,16.7,16.7,80,0.00,,,0.27,TxWx,2013-07-03 21:26:00,
2013-07-03 17:29:00,80.5,72.0,30.08,SE,141,17.9,17.9,78,0.00,,,0.27,TxWx,2013-07-03 21:29:00,
2013-07-03 17:30:00,80.4,72.0,30.07,SE,141,15.5,16.7,78,0.00,,,0.27,TxWx,2013-07-03 21:30:00,
2013-07-03 17:32:00,81.1,73.0,30.08,SE,141,8.7,10.5,78,0.00,,,0.27,TxWx,2013-07-03 21:32:00,
2013-07-03 17:35:00,80.6,73.0,30.08,SSE,163,11.1,12.4,78,0.00,,,0.27,TxWx,2013-07-03 21:35:00,
2013-07-03 17:37:00,80.4,72.0,30.08,SE,141,14.2,20.4,78,0.00,,,0.27,TxWx,2013-07-03 21:37:00,
2013-07-03 17:41:00,79.8,73.0,30.08,SE,141,6.2,8.0,79,0.00,,,0.27,TxWx,2013-07-03 21:41:00,
2013-07-03 17:43:00,78.8,72.0,30.08,South,186,4.3,5.0,79,0.00,,,0.27,TxWx,2013-07-03 21:43:00,
2013-07-03 17:44:00,78.6,72.0,30.08,South,186,5.6,7.4,80,0.00,,,0.27,TxWx,2013-07-03 21:44:00,
2013-07-03 17:46:00,78.2,71.0,30.08,SE,141,5.0,5.0,80,0.00,,,0.27,TxWx,2013-07-03 21:46:00,
2013-07-03 17:48:00,78.3,72.0,30.08,SE,141,5.0,5.6,82,0.00,,,0.27,TxWx,2013-07-03 21:48:00,
2013-07-03 17:49:00,78.4,72.0,30.08,South,186,3.1,3.1,82,0.00,,,0.27,TxWx,2013-07-03 21:49:00,
2013-07-03 17:51:00,78.7,73.0,30.08,SSE,163,3.1,4.3,83,0.00,,,0.27,TxWx,2013-07-03 21:51:00,
2013-07-03 17:55:00,79.3,74.0,30.09,SE,141,9.3,10.5,84,0.00,,,0.27,TxWx,2013-07-03 21:55:00,
2013-07-03 17:56:00,79.5,75.0,30.09,SE,141,16.7,21.0,85,0.00,,,0.27,TxWx,2013-07-03 21:56:00,
2013-07-03 17:57:00,79.3,74.0,30.09,ESE,118,19.2,19.2,84,0.00,,,0.27,TxWx,2013-07-03 21:57:00,
2013-07-03 17:58:00,78.1,72.0,30.08,ESE,118,19.2,20.4,83,0.00,,,0.27,TxWx,2013-07-03 21:58:00,
2013-07-03 18:01:00,77.3,71.0,30.09,SE,141,15.5,16.7,82,0.00,,,0.27,TxWx,2013-07-03 22:01:00,
2013-07-03 18:02:00,77.2,71.0,30.08,SE,141,13.6,15.5,82,0.00,,,0.27,TxWx,2013-07-03 22:02:00,
2013-07-03 18:04:00,77.7,72.0,30.08,ESE,118,8.7,10.5,83,0.00,,,0.27,TxWx,2013-07-03 22:04:00,
2013-07-03 18:05:00,77.8,73.0,30.08,SE,141,9.3,9.3,84,0.00,,,0.27,TxWx,2013-07-03 22:05:00,
2013-07-03 18:07:00,78.0,73.0,30.08,SSE,163,12.4,13.6,84,0.00,,,0.27,TxWx,2013-07-03 22:07:00,
2013-07-03 18:08:00,78.0,73.0,30.08,SSE,163,8.0,9.3,84,0.00,,,0.28,TxWx,2013-07-03 22:08:00,
2013-07-03 18:10:00,78.1,73.0,30.08,SSE,163,8.7,10.5,85,0.00,,,0.28,TxWx,2013-07-03 22:10:00,
2013-07-03 18:14:00,78.6,74.0,30.08,SSE,163,5.6,6.2,85,0.06,,,0.28,TxWx,2013-07-03 22:14:00,
2013-07-03 18:15:00,78.5,74.0,30.08,SSE,163,5.6,8.7,85,0.06,,,0.28,TxWx,2013-07-03 22:15:00,
2013-07-03 18:16:00,78.7,74.0,30.08,SE,141,7.4,7.4,85,0.06,,,0.28,TxWx,2013-07-03 22:16:00,
2013-07-03 18:19:00,78.8,74.0,30.08,SE,141,6.2,9.9,85,0.06,,,0.28,TxWx,2013-07-03 22:19:00,
2013-07-03 18:20:00,78.9,74.0,30.08,SSE,163,11.8,11.8,85,0.06,,,0.28,TxWx,2013-07-03 22:20:00,
2013-07-03 18:21:00,79.0,74.0,30.08,SE,141,6.8,8.7,85,0.06,,,0.28,TxWx,2013-07-03 22:21:00,
2013-07-03 18:22:00,78.8,74.0,30.08,SSE,163,10.5,10.5,84,0.00,,,0.28,TxWx,2013-07-03 22:22:00,
2013-07-03 18:25:00,79.3,74.0,30.08,SSE,163,6.2,6.2,84,0.00,,,0.28,TxWx,2013-07-03 22:25:00,
2013-07-03 18:26:00,79.5,74.0,30.08,SE,141,7.4,7.4,84,0.00,,,0.28,TxWx,2013-07-03 22:26:00,
2013-07-03 18:27:00,79.5,75.0,30.08,SE,141,9.9,9.9,84,0.00,,,0.28,TxWx,2013-07-03 22:27:00,
2013-07-03 18:28:00,79.5,75.0,30.08,South,186,9.3,11.1,84,0.00,,,0.28,TxWx,2013-07-03 22:28:00,
2013-07-03 18:30:00,79.5,75.0,30.08,SSE,163,8.0,10.5,84,0.00,,,0.28,TxWx,2013-07-03 22:30:00,
2013-07-03 18:32:00,79.6,74.0,30.08,SE,141,6.8,6.8,83,0.00,,,0.28,TxWx,2013-07-03 22:32:00,
2013-07-03 18:33:00,79.6,74.0,30.08,SE,141,6.2,6.2,83,0.00,,,0.28,TxWx,2013-07-03 22:33:00,
2013-07-03 18:35:00,79.9,74.0,30.09,South,186,8.7,8.7,83,0.00,,,0.28,TxWx,2013-07-03 22:35:00,
2013-07-03 18:36:00,80.0,74.0,30.09,SE,141,5.0,5.0,83,0.00,,,0.28,TxWx,2013-07-03 22:36:00,
2013-07-03 18:38:00,79.9,74.0,30.09,SSE,163,3.1,3.7,83,0.00,,,0.28,TxWx,2013-07-03 22:38:00,
2013-07-03 18:41:00,80.0,74.0,30.09,SSE,163,4.3,4.3,83,0.00,,,0.28,TxWx,2013-07-03 22:41:00,
2013-07-03 18:43:00,80.1,74.0,30.09,ESE,118,3.7,4.3,83,0.00,,,0.28,TxWx,2013-07-03 22:43:00,
2013-07-03 18:44:00,80.2,74.0,30.09,South,186,5.6,6.2,83,0.00,,,0.28,TxWx,2013-07-03 22:44:00,
2013-07-03 18:49:00,80.2,74.0,30.09,South,186,4.3,4.3,83,0.00,,,0.28,TxWx,2013-07-03 22:49:00,
2013-07-03 18:52:00,80.1,74.0,30.09,South,186,3.7,3.7,83,0.00,,,0.28,TxWx,2013-07-03 22:52:00,
2013-07-03 18:53:00,80.2,74.0,30.09,East,96,1.9,2.5,83,0.00,,,0.28,TxWx,2013-07-03 22:53:00,
2013-07-03 18:54:00,80.3,74.0,30.09,SSE,163,5.6,5.6,83,0.00,,,0.28,TxWx,2013-07-03 22:54:00,
2013-07-03 18:57:00,80.5,74.0,30.09,SSE,163,6.8,7.4,83,0.00,,,0.28,TxWx,2013-07-03 22:57:00,
2013-07-03 18:58:00,80.4,74.0,30.09,South,186,5.6,6.2,83,0.00,,,0.28,TxWx,2013-07-03 22:58:00,
2013-07-03 19:00:00,80.5,75.0,30.10,South,186,11.8,11.8,83,0.00,,,0.28,TxWx,2013-07-03 23:00:00,
2013-07-03 19:03:00,80.4,74.0,30.10,SE,141,13.6,14.2,83,0.00,,,0.28,TxWx,2013-07-03 23:03:00,
2013-07-03 19:04:00,80.1,74.0,30.10,ESE,118,17.9,17.9,82,0.00,,,0.28,TxWx,2013-07-03 23:04:00,
2013-07-03 19:05:00,79.9,74.0,30.10,SE,141,11.1,11.8,82,0.00,,,0.28,TxWx,2013-07-03 23:05:00,
2013-07-03 19:08:00,79.7,74.0,30.09,SE,141,9.3,10.5,82,0.00,,,0.28,TxWx,2013-07-03 23:08:00,
2013-07-03 19:09:00,79.9,74.0,30.09,ESE,118,10.5,11.1,82,0.00,,,0.28,TxWx,2013-07-03 23:09:00,
2013-07-03 19:10:00,80.2,74.0,30.09,SE,141,8.7,9.3,83,0.00,,,0.28,TxWx,2013-07-03 23:10:00,
2013-07-03 19:12:00,80.6,75.0,30.09,SE,141,8.0,8.7,83,0.00,,,0.28,TxWx,2013-07-03 23:12:00,
2013-07-03 19:14:00,80.4,74.0,30.09,SE,141,8.0,9.3,83,0.00,,,0.28,TxWx,2013-07-03 23:14:00,
2013-07-03 19:16:00,80.5,75.0,30.09,SSE,163,8.7,8.7,83,0.00,,,0.28,TxWx,2013-07-03 23:16:00,
2013-07-03 19:17:00,80.4,74.0,30.09,ESE,118,9.3,9.3,83,0.00,,,0.28,TxWx,2013-07-03 23:17:00,
2013-07-03 19:20:00,80.4,74.0,30.09,ESE,118,8.7,9.9,83,0.00,,,0.28,TxWx,2013-07-03 23:20:00,
2013-07-03 19:21:00,79.9,74.0,30.09,SSE,163,10.5,10.5,83,0.00,,,0.28,TxWx,2013-07-03 23:21:00,
2013-07-03 19:23:00,79.8,74.0,30.09,SE,141,13.0,13.0,82,0.00,,,0.28,TxWx,2013-07-03 23:23:00,
2013-07-03 19:26:00,80.0,73.0,30.09,SE,141,14.2,15.5,80,0.00,,,0.28,TxWx,2013-07-03 23:26:00,
2013-07-03 19:28:00,80.6,74.0,30.09,SE,141,13.6,13.6,80,0.00,,,0.28,TxWx,2013-07-03 23:28:00,
2013-07-03 19:31:00,80.5,73.0,30.09,ESE,118,13.0,14.2,78,0.00,,,0.28,TxWx,2013-07-03 23:31:00,
2013-07-03 19:34:00,80.8,73.0,30.09,SE,141,14.9,14.9,77,0.00,,,0.28,TxWx,2013-07-03 23:34:00,
2013-07-03 19:36:00,80.8,73.0,30.09,ESE,118,13.0,13.0,78,0.00,,,0.28,TxWx,2013-07-03 23:36:00,
2013-07-03 19:38:00,80.5,73.0,30.09,SE,141,13.0,13.6,78,0.00,,,0.28,TxWx,2013-07-03 23:38:00,
2013-07-03 19:39:00,80.4,72.0,30.09,SE,141,14.9,14.9,78,0.00,,,0.28,TxWx,2013-07-03 23:39:00,
2013-07-03 19:40:00,80.3,72.0,30.09,SE,141,9.3,10.5,78,0.00,,,0.28,TxWx,2013-07-03 23:40:00,
2013-07-03 19:42:00,80.2,72.0,30.09,SE,141,10.5,10.5,78,0.00,,,0.28,TxWx,2013-07-03 23:42:00,
2013-07-03 19:45:00,80.6,73.0,30.09,SE,141,7.4,7.4,78,0.00,,,0.28,TxWx,2013-07-03 23:45:00,
2013-07-03 19:47:00,80.6,73.0,30.09,SE,141,9.3,10.5,78,0.00,,,0.28,TxWx,2013-07-03 23:47:00,
2013-07-03 19:48:00,80.6,73.0,30.09,SE,141,8.0,8.0,78,0.00,,,0.28,TxWx,2013-07-03 23:48:00,
2013-07-03 19:50:00,80.5,72.0,30.10,SE,141,13.0,13.0,78,0.00,,,0.28,TxWx,2013-07-03 23:50:00,
2013-07-03 19:52:00,80.7,74.0,30.10,SE,141,9.3,9.3,79,0.00,,,0.28,TxWx,2013-07-03 23:52:00,
2013-07-03 19:53:00,80.6,74.0,30.10,SSE,163,11.1,11.1,79,0.00,,,0.28,TxWx,2013-07-03 23:53:00,
2013-07-03 19:54:00,80.4,73.0,30.10,SE,141,12.4,13.0,79,0.00,,,0.28,TxWx,2013-07-03 23:54:00,
2013-07-03 19:56:00,80.5,74.0,30.10,SSE,163,11.1,11.8,79,0.00,,,0.28,TxWx,2013-07-03 23:56:00,
2013-07-03 19:58:00,80.5,73.0,30.10,SSE,163,9.9,11.1,79,0.00,,,0.28,TxWx,2013-07-03 23:58:00,
2013-07-03 19:59:00,80.5,74.0,30.10,SSE,163,10.5,12.4,80,0.00,,,0.28,TxWx,2013-07-03 23:59:00,
2013-07-03 20:03:00,80.6,74.0,30.10,South,186,7.4,10.5,80,0.00,,,0.28,TxWx,2013-07-04 00:03:00,
2013-07-03 20:05:00,80.4,73.0,30.11,SE,141,9.9,11.8,79,0.00,,,0.28,TxWx,2013-07-04 00:05:00,
2013-07-03 20:06:00,80.3,73.0,30.11,SSE,163,11.1,11.1,79,0.00,,,0.28,TxWx,2013-07-04 00:06:00,
2013-07-03 20:07:00,80.3,73.0,30.10,SE,141,9.3,9.9,79,0.00,,,0.28,TxWx,2013-07-04 00:07:00,
2013-07-03 20:10:00,80.5,72.0,30.10,SSE,163,7.4,7.4,78,0.00,,,0.28,TxWx,2013-07-04 00:10:00,
2013-07-03 20:11:00,80.6,73.0,30.10,SSE,163,5.6,7.4,78,0.00,,,0.28,TxWx,2013-07-04 00:11:00,
2013-07-03 20:12:00,80.3,72.0,30.11,SSE,163,7.4,8.7,77,0.00,,,0.28,TxWx,2013-07-04 00:12:00,
2013-07-03 20:17:00,80.6,72.0,30.11,SSE,163,6.2,6.2,75,0.00,,,0.28,TxWx,2013-07-04 00:17:00,
2013-07-03 20:20:00,81.2,72.0,30.11,SSW,208,8.0,8.0,75,0.00,,,0.28,TxWx,2013-07-04 00:20:00,
2013-07-03 20:21:00,81.2,72.0,30.11,ESE,118,6.8,7.4,76,0.00,,,0.28,TxWx,2013-07-04 00:21:00,
2013-07-03 20:23:00,81.4,73.0,30.11,SSE,163,6.8,6.8,77,0.00,,,0.28,TxWx,2013-07-04 00:23:00,
2013-07-03 20:24:00,81.5,73.0,30.11,SSE,163,11.1,11.1,77,0.00,,,0.28,TxWx,2013-07-04 00:24:00,
2013-07-03 20:26:00,81.4,73.0,30.11,SSE,163,10.5,11.8,78,0.00,,,0.28,TxWx,2013-07-04 00:26:00,
2013-07-03 20:27:00,81.2,73.0,30.11,SE,141,8.7,8.7,78,0.00,,,0.28,TxWx,2013-07-04 00:27:00,
2013-07-03 20:29:00,81.1,73.0,30.11,SSE,163,12.4,13.0,78,0.00,,,0.28,TxWx,2013-07-04 00:29:00,
2013-07-03 20:30:00,81.2,73.0,30.11,SSE,163,10.5,10.5,78,0.00,,,0.28,TxWx,2013-07-04 00:30:00,
2013-07-03 20:33:00,81.2,74.0,30.11,SE,141,8.7,11.1,79,0.00,,,0.28,TxWx,2013-07-04 00:33:00,
2013-07-03 20:34:00,81.5,74.0,30.11,SSE,163,7.4,8.0,79,0.00,,,0.28,TxWx,2013-07-04 00:34:00,
2013-07-03 20:35:00,81.3,74.0,30.11,SSE,163,10.5,11.1,79,0.00,,,0.28,TxWx,2013-07-04 00:35:00,
2013-07-03 20:37:00,80.6,73.0,30.11,SE,141,10.5,10.5,78,0.00,,,0.28,TxWx,2013-07-04 00:37:00,
2013-07-03 20:38:00,80.5,72.0,30.11,ESE,118,8.7,8.7,78,0.00,,,0.28,TxWx,2013-07-04 00:38:00,
2013-07-03 20:39:00,80.5,73.0,30.11,SE,141,10.5,10.5,78,0.00,,,0.28,TxWx,2013-07-04 00:39:00,
2013-07-03 20:40:00,80.7,73.0,30.11,SE,141,9.9,11.1,78,0.00,,,0.28,TxWx,2013-07-04 00:40:00,
2013-07-03 20:42:00,80.7,73.0,30.11,SE,141,9.9,9.9,77,0.00,,,0.28,TxWx,2013-07-04 00:42:00,
2013-07-03 20:44:00,80.6,73.0,30.11,SE,141,8.0,8.0,76,0.00,,,0.28,TxWx,2013-07-04 00:44:00,
2013-07-03 20:45:00,80.6,72.0,30.11,SE,141,7.4,8.0,76,0.00,,,0.28,TxWx,2013-07-04 00:45:00,
2013-07-03 20:46:00,80.7,72.0,30.11,SSE,163,12.4,13.0,76,0.00,,,0.28,TxWx,2013-07-04 00:46:00,
2013-07-03 20:50:00,80.9,72.0,30.11,SSE,163,8.7,8.7,76,0.00,,,0.28,TxWx,2013-07-04 00:50:00,
2013-07-03 20:51:00,80.8,72.0,30.11,SE,141,9.9,11.1,75,0.00,,,0.28,TxWx,2013-07-04 00:51:00,
2013-07-03 20:52:00,80.8,72.0,30.12,SSE,163,7.4,8.0,75,0.00,,,0.28,TxWx,2013-07-04 00:52:00,
2013-07-03 20:53:00,80.7,72.0,30.12,SSE,163,11.1,11.1,75,0.00,,,0.28,TxWx,2013-07-04 00:53:00,
2013-07-03 20:57:00,80.6,72.0,30.12,SE,141,8.0,10.5,75,0.00,,,0.28,TxWx,2013-07-04 00:57:00,
2013-07-03 20:58:00,80.8,72.0,30.12,SE,141,6.2,8.0,75,0.00,,,0.28,TxWx,2013-07-04 00:58:00,
2013-07-03 21:02:00,80.7,72.0,30.11,SE,141,4.3,4.3,75,0.00,,,0.28,TxWx,2013-07-04 01:02:00,
2013-07-03 21:03:00,80.6,72.0,30.11,South,186,7.4,7.4,75,0.00,,,0.28,TxWx,2013-07-04 01:03:00,
2013-07-03 21:04:00,80.7,72.0,30.12,East,96,6.2,6.2,75,0.00,,,0.28,TxWx,2013-07-04 01:04:00,
2013-07-03 21:08:00,80.8,72.0,30.12,SSE,163,6.2,6.8,75,0.00,,,0.28,TxWx,2013-07-04 01:08:00,
2013-07-03 21:09:00,80.7,72.0,30.11,SSE,163,7.4,7.4,75,0.00,,,0.28,TxWx,2013-07-04 01:09:00,
2013-07-03 21:10:00,80.8,72.0,30.11,SSE,163,8.7,9.9,75,0.00,,,0.28,TxWx,2013-07-04 01:10:00,
2013-07-03 21:15:00,80.8,72.0,30.11,SSE,163,5.6,6.2,75,0.00,,,0.28,TxWx,2013-07-04 01:15:00,
2013-07-03 21:16:00,80.9,72.0,30.11,ESE,118,6.2,6.8,75,0.00,,,0.28,TxWx,2013-07-04 01:16:00,
2013-07-03 21:17:00,80.8,72.0,30.11,SSE,163,7.4,7.4,75,0.00,,,0.28,TxWx,2013-07-04 01:17:00,
2013-07-03 21:22:00,80.9,72.0,30.11,SE,141,6.2,6.8,76,0.00,,,0.28,TxWx,2013-07-04 01:22:00,
2013-07-03 21:24:00,80.8,73.0,30.11,SSE,163,6.8,6.8,76,0.00,,,0.28,TxWx,2013-07-04 01:24:00,
2013-07-03 21:26:00,80.7,73.0,30.11,SE,141,5.0,5.0,76,0.00,,,0.28,TxWx,2013-07-04 01:26:00,
2013-07-03 21:27:00,80.7,73.0,30.11,SSE,163,4.3,4.3,77,0.00,,,0.28,TxWx,2013-07-04 01:27:00,
2013-07-03 21:28:00,80.7,73.0,30.12,South,186,5.6,5.6,77,0.00,,,0.28,TxWx,2013-07-04 01:28:00,
2013-07-03 21:31:00,80.7,73.0,30.11,SE,141,5.6,5.6,77,0.00,,,0.28,TxWx,2013-07-04 01:31:00,
2013-07-03 21:33:00,80.8,73.0,30.11,SSE,163,6.8,8.0,77,0.00,,,0.28,TxWx,2013-07-04 01:33:00,
2013-07-03 21:34:00,80.8,73.0,30.11,South,186,4.3,4.3,77,0.00,,,0.28,TxWx,2013-07-04 01:34:00,
2013-07-03 21:37:00,80.8,73.0,30.11,SSE,163,6.2,6.2,77,0.00,,,0.28,TxWx,2013-07-04 01:37:00,
2013-07-03 21:39:00,81.0,73.0,30.11,ESE,118,5.0,5.0,77,0.00,,,0.28,TxWx,2013-07-04 01:39:00,
2013-07-03 21:40:00,81.0,73.0,30.11,SSE,163,3.7,4.3,77,0.00,,,0.28,TxWx,2013-07-04 01:40:00,
2013-07-03 21:42:00,81.0,73.0,30.11,SE,141,5.6,6.2,78,0.00,,,0.28,TxWx,2013-07-04 01:42:00,
2013-07-03 21:45:00,81.1,74.0,30.11,SE,141,6.8,8.0,79,0.00,,,0.28,TxWx,2013-07-04 01:45:00,
2013-07-03 21:47:00,81.0,74.0,30.11,SE,141,8.7,8.7,79,0.00,,,0.28,TxWx,2013-07-04 01:47:00,
2013-07-03 21:49:00,80.9,74.0,30.11,SE,141,6.2,8.0,79,0.00,,,0.28,TxWx,2013-07-04 01:49:00,
2013-07-03 21:53:00,80.8,74.0,30.11,SE,141,8.7,8.7,79,0.00,,,0.28,TxWx,2013-07-04 01:53:00,
2013-07-03 21:55:00,80.9,74.0,30.11,ESE,118,9.3,9.3,79,0.00,,,0.28,TxWx,2013-07-04 01:55:00,
2013-07-03 21:59:00,80.9,74.0,30.12,SE,141,9.9,9.9,79,0.00,,,0.28,TxWx,2013-07-04 01:59:00,
2013-07-03 22:00:00,81.1,74.0,30.12,SE,141,8.0,8.0,79,0.00,,,0.28,TxWx,2013-07-04 02:00:00,
2013-07-03 22:02:00,81.0,74.0,30.12,SE,141,8.7,8.7,79,0.00,,,0.28,TxWx,2013-07-04 02:02:00,
2013-07-03 22:05:00,81.0,74.0,30.12,SE,141,7.4,7.4,79,0.00,,,0.28,TxWx,2013-07-04 02:05:00,
2013-07-03 22:06:00,80.9,74.0,30.12,ESE,118,6.8,8.0,79,0.00,,,0.28,TxWx,2013-07-04 02:06:00,
2013-07-03 22:08:00,80.9,74.0,30.12,SE,141,7.4,8.0,79,0.00,,,0.28,TxWx,2013-07-04 02:08:00,
2013-07-03 22:11:00,81.1,74.0,30.12,SE,141,6.2,6.8,80,0.00,,,0.28,TxWx,2013-07-04 02:11:00,
2013-07-03 22:13:00,81.1,74.0,30.12,SE,141,5.6,7.4,80,0.00,,,0.28,TxWx,2013-07-04 02:13:00,
2013-07-03 22:17:00,81.1,74.0,30.13,SSE,163,7.4,7.4,80,0.00,,,0.28,TxWx,2013-07-04 02:17:00,
2013-07-03 22:18:00,81.0,74.0,30.13,SE,141,6.2,6.8,80,0.00,,,0.28,TxWx,2013-07-04 02:18:00,
2013-07-03 22:22:00,80.8,74.0,30.13,SE,141,6.8,7.4,80,0.00,,,0.28,TxWx,2013-07-04 02:22:00,
2013-07-03 22:23:00,80.9,74.0,30.13,SE,141,6.8,7.4,80,0.00,,,0.28,TxWx,2013-07-04 02:23:00,
2013-07-03 22:25:00,81.0,74.0,30.13,SE,141,6.2,6.2,80,0.00,,,0.28,TxWx,2013-07-04 02:25:00,
2013-07-03 22:29:00,81.0,74.0,30.13,ESE,118,5.6,5.6,81,0.00,,,0.28,TxWx,2013-07-04 02:29:00,
2013-07-03 22:30:00,81.1,74.0,30.13,ESE,118,6.2,6.2,81,0.00,,,0.28,TxWx,2013-07-04 02:30:00,
2013-07-03 22:31:00,81.1,74.0,30.13,ESE,118,5.6,6.8,81,0.00,,,0.28,TxWx,2013-07-04 02:31:00,
2013-07-03 22:32:00,81.1,75.0,30.13,SE,141,6.2,6.2,81,0.00,,,0.28,TxWx,2013-07-04 02:32:00,
2013-07-03 22:34:00,81.1,75.0,30.13,SE,141,7.4,7.4,81,0.00,,,0.28,TxWx,2013-07-04 02:34:00,
2013-07-03 22:37:00,81.1,75.0,30.13,ESE,118,7.4,8.7,82,0.00,,,0.28,TxWx,2013-07-04 02:37:00,
2013-07-03 22:38:00,81.2,75.0,30.13,SE,141,9.3,9.3,82,0.00,,,0.28,TxWx,2013-07-04 02:38:00,
2013-07-03 22:41:00,81.3,74.0,30.13,ESE,118,12.4,13.0,80,0.00,,,0.28,TxWx,2013-07-04 02:41:00,
2013-07-03 22:43:00,81.7,75.0,30.13,SE,141,13.6,14.2,80,0.00,,,0.28,TxWx,2013-07-04 02:43:00,
2013-07-03 22:44:00,81.8,75.0,30.13,SE,141,14.9,15.5,79,0.00,,,0.28,TxWx,2013-07-04 02:44:00,
2013-07-03 22:46:00,81.8,74.0,30.13,ESE,118,15.5,16.7,78,0.00,,,0.28,TxWx,2013-07-04 02:46:00,
2013-07-03 22:47:00,82.0,74.0,30.13,ESE,118,13.6,14.9,78,0.00,,,0.28,TxWx,2013-07-04 02:47:00,
2013-07-03 22:49:00,82.0,74.0,30.13,SE,141,14.9,14.9,78,0.00,,,0.28,TxWx,2013-07-04 02:49:00,
2013-07-03 22:52:00,82.0,74.0,30.13,SE,141,12.4,14.9,77,0.00,,,0.28,TxWx,2013-07-04 02:52:00,
2013-07-03 22:53:00,82.0,74.0,30.13,SE,141,13.6,14.2,77,0.00,,,0.28,TxWx,2013-07-04 02:53:00,
2013-07-03 22:54:00,82.1,74.0,30.13,SE,141,12.4,14.2,77,0.00,,,0.28,TxWx,2013-07-04 02:54:00,
2013-07-03 22:55:00,82.0,74.0,30.13,SE,141,15.5,15.5,77,0.00,,,0.28,TxWx,2013-07-04 02:55:00,
2013-07-03 22:58:00,82.0,74.0,30.13,SE,141,13.6,13.6,77,0.00,,,0.28,TxWx,2013-07-04 02:58:00,
2013-07-03 22:59:00,82.0,74.0,30.13,SE,141,11.1,13.0,77,0.00,,,0.28,TxWx,2013-07-04 02:59:00,
2013-07-03 23:00:00,82.0,74.0,30.13,SE,141,13.0,13.0,77,0.00,,,0.28,TxWx,2013-07-04 03:00:00,
2013-07-03 23:02:00,81.9,74.0,30.14,SE,141,13.6,13.6,77,0.00,,,0.28,TxWx,2013-07-04 03:02:00,
2013-07-03 23:04:00,81.8,74.0,30.14,SE,141,13.6,13.6,78,0.00,,,0.28,TxWx,2013-07-04 03:04:00,
2013-07-03 23:05:00,81.8,74.0,30.13,SE,141,13.0,13.0,78,0.00,,,0.28,TxWx,2013-07-04 03:05:00,
2013-07-03 23:08:00,81.9,74.0,30.13,SE,141,13.6,13.6,77,0.00,,,0.28,TxWx,2013-07-04 03:08:00,
2013-07-03 23:09:00,81.9,74.0,30.13,SE,141,13.0,13.0,77,0.00,,,0.28,TxWx,2013-07-04 03:09:00,
2013-07-03 23:11:00,81.9,74.0,30.13,SE,141,13.6,13.6,77,0.00,,,0.28,TxWx,2013-07-04 03:11:00,
2013-07-03 23:13:00,82.1,74.0,30.13,ESE,118,13.0,13.6,77,0.00,,,0.28,TxWx,2013-07-04 03:13:00,
2013-07-03 23:16:00,82.0,74.0,30.13,SE,141,14.2,14.2,77,0.00,,,0.28,TxWx,2013-07-04 03:16:00,
2013-07-03 23:17:00,82.1,74.0,30.13,SE,141,12.4,12.4,77,0.00,,,0.28,TxWx,2013-07-04 03:17:00,
2013-07-03 23:21:00,82.1,74.0,30.13,ESE,118,13.0,13.0,76,0.00,,,0.28,TxWx,2013-07-04 03:21:00,
2013-07-03 23:22:00,81.9,74.0,30.12,SE,141,13.6,15.5,76,0.00,,,0.28,TxWx,2013-07-04 03:22:00,
2013-07-03 23:23:00,82.0,74.0,30.12,ESE,118,13.6,13.6,76,0.00,,,0.28,TxWx,2013-07-04 03:23:00,
2013-07-03 23:24:00,82.0,74.0,30.13,SE,141,12.4,13.6,76,0.00,,,0.28,TxWx,2013-07-04 03:24:00,
2013-07-03 23:28:00,82.0,74.0,30.12,ESE,118,14.9,15.5,76,0.00,,,0.28,TxWx,2013-07-04 03:28:00,
2013-07-03 23:29:00,82.0,74.0,30.12,SE,141,13.6,15.5,76,0.00,,,0.28,TxWx,2013-07-04 03:29:00,
2013-07-03 23:30:00,82.2,74.0,30.13,ESE,118,13.0,13.0,76,0.00,,,0.28,TxWx,2013-07-04 03:30:00,
2013-07-03 23:32:00,82.2,74.0,30.13,ESE,118,13.0,14.2,76,0.00,,,0.28,TxWx,2013-07-04 03:32:00,
2013-07-03 23:33:00,82.1,74.0,30.13,SE,141,13.6,13.6,77,0.00,,,0.28,TxWx,2013-07-04 03:33:00,
2013-07-03 23:34:00,82.1,74.0,30.13,ESE,118,11.8,11.8,77,0.00,,,0.28,TxWx,2013-07-04 03:34:00,
2013-07-03 23:35:00,82.0,74.0,30.13,SE,141,11.8,12.4,77,0.00,,,0.28,TxWx,2013-07-04 03:35:00,
2013-07-03 23:38:00,81.8,74.0,30.13,SE,141,11.1,11.8,78,0.00,,,0.28,TxWx,2013-07-04 03:38:00,
2013-07-03 23:40:00,81.8,74.0,30.13,SE,141,14.2,14.2,78,0.00,,,0.28,TxWx,2013-07-04 03:40:00,
2013-07-03 23:42:00,81.8,74.0,30.13,SE,141,13.6,14.2,78,0.00,,,0.28,TxWx,2013-07-04 03:42:00,
2013-07-03 23:43:00,82.0,75.0,30.13,SE,141,11.8,11.8,79,0.00,,,0.28,TxWx,2013-07-04 03:43:00,
2013-07-03 23:44:00,81.8,75.0,30.13,SE,141,13.6,13.6,79,0.00,,,0.28,TxWx,2013-07-04 03:44:00,
2013-07-03 23:47:00,81.5,74.0,30.13,SE,141,13.6,15.5,79,0.00,,,0.28,TxWx,2013-07-04 03:47:00,
2013-07-03 23:49:00,81.5,75.0,30.13,SE,141,14.9,15.5,79,0.00,,,0.28,TxWx,2013-07-04 03:49:00,
2013-07-03 23:50:00,81.5,75.0,30.13,SE,141,15.5,15.5,79,0.00,,,0.28,TxWx,2013-07-04 03:50:00,
2013-07-03 23:53:00,81.4,74.0,30.14,SE,141,16.1,16.1,79,0.00,,,0.28,TxWx,2013-07-04 03:53:00,
2013-07-03 23:54:00,81.3,73.0,30.14,SE,141,18.6,18.6,78,0.00,,,0.28,TxWx,2013-07-04 03:54:00,
2013-07-03 23:55:00,81.3,73.0,30.14,East,96,13.0,14.2,78,0.00,,,0.28,TxWx,2013-07-04 03:55:00,
2013-07-03 23:58:00,81.3,73.0,30.13,ESE,118,13.6,13.6,78,0.00,,,0.28,TxWx,2013-07-04 03:58:00,